Observation data for Palo Duro Reservoir 1NW on 02/14/2020      Previous  Date  Next       Current Mesonet Observations  Soil Data  Daily Summary Page  Observations in Plain Language
KPD4 140600Z 15007KT M06/M13 A3033 RMK A01 T10601126  RH  060%=      5-min Rain = 0
KPD4 140601Z 14008KT M06/M13 A3033 RMK A01 T10601125  RH  060%=      5-min Rain = 0
KPD4 140602Z 14006KT M06/M13 A3032 RMK A01 T10601126  RH  060%=      5-min Rain = 0
KPD4 140603Z 13007KT M06/M12 A3032 RMK A01 T10601124  RH  060%=      5-min Rain = 0
KPD4 140604Z 13008KT M06/M12 A3032 RMK A01 T10601124  RH  060%=      5-min Rain = 0
KPD4 140605Z 14006KT M06/M12 A3033 RMK A01 T10601124  RH  060%=      5-min Rain = 0
KPD4 140606Z 14007KT M06/M12 A3033 RMK A01 T10601124  RH  061%=      5-min Rain = 0
KPD4 140607Z 15007KT M06/M12 A3033 RMK A01 T10601124  RH  061%=      5-min Rain = 0
KPD4 140608Z 15006KT M06/M12 A3033 RMK A01 T10601124  RH  060%=      5-min Rain = 0
KPD4 140609Z 14007KT M06/M12 A3033 RMK A01 T10611124  RH  061%=      5-min Rain = 0
KPD4 140610Z 13007KT M06/M12 A3033 RMK A01 T10601124  RH  061%=      5-min Rain = 0
KPD4 140611Z 13006KT M06/M12 A3033 RMK A01 T10611123  RH  061%=      5-min Rain = 0
KPD4 140612Z 13006KT M06/M12 A3033 RMK A01 T10601123  RH  061%=      5-min Rain = 0
KPD4 140613Z 13006KT M06/M12 A3033 RMK A01 T10611123  RH  061%=      5-min Rain = 0
KPD4 140614Z 13008KT M06/M12 A3033 RMK A01 T10601123  RH  061%=      5-min Rain = 0
KPD4 140615Z 12008KT M06/M12 A3032 RMK A01 T10611123  RH  061%=      5-min Rain = 0
KPD4 140616Z 12008KT M06/M12 A3032 RMK A01 T10611123  RH  061%=      5-min Rain = 0
KPD4 140617Z 13007KT M06/M12 A3032 RMK A01 T10611122  RH  062%=      5-min Rain = 0
KPD4 140618Z 13007KT M06/M12 A3032 RMK A01 T10611122  RH  062%=      5-min Rain = 0
KPD4 140619Z 12008KT M06/M12 A3032 RMK A01 T10611122  RH  062%=      5-min Rain = 0
KPD4 140620Z 13006KT M06/M12 A3032 RMK A01 T10611122  RH  062%=      5-min Rain = 0
KPD4 140621Z 14005KT M06/M12 A3032 RMK A01 T10611121  RH  062%=      5-min Rain = 0
KPD4 140622Z 13007KT M06/M12 A3032 RMK A01 T10611121  RH  063%=      5-min Rain = 0
KPD4 140623Z 14007KT M06/M12 A3032 RMK A01 T10611121  RH  062%=      5-min Rain = 0
KPD4 140624Z 14007KT M06/M12 A3032 RMK A01 T10611121  RH  062%=      5-min Rain = 0
KPD4 140625Z 14009KT M06/M12 A3032 RMK A01 T10611120  RH  063%=      5-min Rain = 0
KPD4 140626Z 14008KT M06/M12 A3032 RMK A01 T10611119  RH  063%=      5-min Rain = 0
KPD4 140627Z 14007KT M06/M12 A3032 RMK A01 T10611118  RH  064%=      5-min Rain = 0
KPD4 140628Z 14007KT M06/M12 A3032 RMK A01 T10611117  RH  064%=      5-min Rain = 0
KPD4 140629Z 14008KT M06/M12 A3032 RMK A01 T10611116  RH  065%=      5-min Rain = 0
KPD4 140630Z 14007KT M06/M12 A3032 RMK A01 T10611115  RH  066%=      5-min Rain = 0
KPD4 140631Z 14007KT M06/M12 A3032 RMK A01 T10621115  RH  066%=      5-min Rain = 0
KPD4 140632Z 14008KT M06/M11 A3032 RMK A01 T10611114  RH  066%=      5-min Rain = 0
KPD4 140633Z 14008KT M06/M11 A3032 RMK A01 T10621114  RH  066%=      5-min Rain = 0
KPD4 140634Z 13008KT M06/M11 A3032 RMK A01 T10621114  RH  067%=      5-min Rain = 0
KPD4 140635Z 13007KT M06/M11 A3032 RMK A01 T10621114  RH  067%=      5-min Rain = 0
KPD4 140636Z 14007KT M06/M11 A3032 RMK A01 T10621113  RH  068%=      5-min Rain = 0
KPD4 140637Z 13007KT M06/M11 A3031 RMK A01 T10621112  RH  068%=      5-min Rain = 0
KPD4 140638Z 13009KT M06/M11 A3031 RMK A01 T10621112  RH  068%=      5-min Rain = 0
KPD4 140639Z 13008KT M06/M11 A3031 RMK A01 T10621111  RH  068%=      5-min Rain = 0
KPD4 140640Z 13008KT M06/M11 A3031 RMK A01 T10631111  RH  069%=      5-min Rain = 0
KPD4 140641Z 13008KT M06/M11 A3031 RMK A01 T10621110  RH  069%=      5-min Rain = 0
KPD4 140642Z 14007KT M06/M11 A3031 RMK A01 T10621110  RH  069%=      5-min Rain = 0
KPD4 140643Z 14007KT M06/M11 A3031 RMK A01 T10621110  RH  069%=      5-min Rain = 0
KPD4 140644Z 14008KT M06/M11 A3031 RMK A01 T10621109  RH  069%=      5-min Rain = 0
KPD4 140645Z 14007KT M06/M11 A3031 RMK A01 T10621109  RH  070%=      5-min Rain = 0
KPD4 140646Z 14008KT M06/M11 A3031 RMK A01 T10621108  RH  070%=      5-min Rain = 0
KPD4 140647Z 14008KT M06/M11 A3031 RMK A01 T10621108  RH  070%=      5-min Rain = 0
KPD4 140648Z 14008KT M06/M11 A3031 RMK A01 T10621108  RH  070%=      5-min Rain = 0
KPD4 140649Z 14009KT M06/M11 A3031 RMK A01 T10621107  RH  071%=      5-min Rain = 0
KPD4 140650Z 14007KT M06/M11 A3031 RMK A01 T10631107  RH  071%=      5-min Rain = 0
KPD4 140651Z 15008KT M06/M11 A3031 RMK A01 T10621106  RH  071%=      5-min Rain = 0
KPD4 140652Z 14009KT M06/M10 A3031 RMK A01 T10621104  RH  072%=      5-min Rain = 0
KPD4 140653Z 14008KT M06/M10 A3031 RMK A01 T10621103  RH  073%=      5-min Rain = 0
KPD4 140654Z 15007KT M06/M10 A3031 RMK A01 T10631102  RH  073%=      5-min Rain = 0
KPD4 140655Z 15008KT M06/M10 A3031 RMK A01 T10631102  RH  074%=      5-min Rain = 0
KPD4 140656Z 15007KT M06/M10 A3031 RMK A01 T10631102  RH  074%=      5-min Rain = 0
KPD4 140657Z 15007KT M06/M10 A3031 RMK A01 T10631102  RH  074%=      5-min Rain = 0
KPD4 140658Z 16006KT M06/M10 A3031 RMK A01 T10631102  RH  074%=      5-min Rain = 0
KPD4 140659Z 16006KT M06/M10 A3031 RMK A01 T10631101  RH  075%=      5-min Rain = 0
KPD4 140700Z 17007KT M06/M10 A3031 RMK A01 T10631101  RH  075%=      5-min Rain = 0
KPD4 140701Z 16008KT M06/M10 A3031 RMK A01 T10631100  RH  075%=      5-min Rain = 0
KPD4 140702Z 16006KT M06/M10 A3031 RMK A01 T10631100  RH  075%=      5-min Rain = 0
KPD4 140703Z 17008KT M06/M10 A3031 RMK A01 T10631099  RH  076%=      5-min Rain = 0
KPD4 140704Z 16006KT M06/M10 A3031 RMK A01 T10641100  RH  076%=      5-min Rain = 0
KPD4 140705Z 16006KT M06/M10 A3031 RMK A01 T10641099  RH  076%=      5-min Rain = 0
KPD4 140706Z 16006KT M06/M10 A3031 RMK A01 T10641099  RH  076%=      5-min Rain = 0
KPD4 140707Z 17007KT M06/M10 A3031 RMK A01 T10631098  RH  076%=      5-min Rain = 0
KPD4 140708Z 17007KT M06/M10 A3031 RMK A01 T10641098  RH  077%=      5-min Rain = 0
KPD4 140709Z 18006KT M06/M10 A3031 RMK A01 T10641098  RH  077%=      5-min Rain = 0
KPD4 140710Z 17006KT M06/M10 A3031 RMK A01 T10641097  RH  077%=      5-min Rain = 0
KPD4 140711Z 17007KT M06/M10 A3031 RMK A01 T10641097  RH  077%=      5-min Rain = 0
KPD4 140712Z 17008KT M06/M10 A3031 RMK A01 T10641098  RH  077%=      5-min Rain = 0
KPD4 140713Z 16006KT M06/M10 A3031 RMK A01 T10641098  RH  077%=      5-min Rain = 0
KPD4 140714Z 16006KT M06/M10 A3031 RMK A01 T10641098  RH  077%=      5-min Rain = 0
KPD4 140715Z 15008KT M07/M10 A3031 RMK A01 T10651098  RH  077%=      5-min Rain = 0
KPD4 140716Z 14008KT M07/M10 A3031 RMK A01 T10651098  RH  077%=      5-min Rain = 0
KPD4 140717Z 14008KT M07/M10 A3031 RMK A01 T10651098  RH  077%=      5-min Rain = 0
KPD4 140718Z 15007KT M07/M10 A3031 RMK A01 T10651098  RH  077%=      5-min Rain = 0
KPD4 140719Z 15007KT M07/M10 A3031 RMK A01 T10651098  RH  078%=      5-min Rain = 0
KPD4 140720Z 15006KT M07/M10 A3031 RMK A01 T10651097  RH  078%=      5-min Rain = 0
KPD4 140721Z 16006KT M07/M10 A3031 RMK A01 T10651096  RH  079%=      5-min Rain = 0
KPD4 140722Z 16006KT M07/M10 A3031 RMK A01 T10651095  RH  079%=      5-min Rain = 0
KPD4 140723Z 15008KT M07/M10 A3031 RMK A01 T10651096  RH  079%=      5-min Rain = 0
KPD4 140724Z 16007KT M07/M10 A3031 RMK A01 T10651097  RH  078%=      5-min Rain = 0
KPD4 140725Z 16007KT M07/M10 A3031 RMK A01 T10651097  RH  078%=      5-min Rain = 0
KPD4 140726Z 16008KT M07/M10 A3031 RMK A01 T10651096  RH  078%=      5-min Rain = 0
KPD4 140727Z 15007KT M07/M10 A3031 RMK A01 T10651096  RH  079%=      5-min Rain = 0
KPD4 140728Z 16009KT M07/M10 A3031 RMK A01 T10651097  RH  079%=      5-min Rain = 0
KPD4 140729Z 17008KT M07/M10 A3031 RMK A01 T10661097  RH  079%=      5-min Rain = 0
KPD4 140730Z 17008KT M07/M10 A3031 RMK A01 T10661097  RH  079%=      5-min Rain = 0
KPD4 140731Z 15006KT M07/M10 A3031 RMK A01 T10661097  RH  079%=      5-min Rain = 0
KPD4 140732Z 15007KT M07/M10 A3031 RMK A01 T10661096  RH  079%=      5-min Rain = 0
KPD4 140733Z 15007KT M07/M10 A3031 RMK A01 T10661096  RH  079%=      5-min Rain = 0
KPD4 140734Z 16007KT M07/M10 A3031 RMK A01 T10661097  RH  079%=      5-min Rain = 0
KPD4 140735Z 16006KT M07/M10 A3031 RMK A01 T10661097  RH  079%=      5-min Rain = 0
KPD4 140736Z 16007KT M07/M10 A3031 RMK A01 T10661096  RH  079%=      5-min Rain = 0
KPD4 140737Z 16008KT M07/M10 A3031 RMK A01 T10661095  RH  080%=      5-min Rain = 0
KPD4 140738Z 15008KT M07/M10 A3031 RMK A01 T10661095  RH  080%=      5-min Rain = 0
KPD4 140739Z 15007KT M07/M10 A3031 RMK A01 T10661095  RH  080%=      5-min Rain = 0
KPD4 140740Z 15008KT M07/M10 A3031 RMK A01 T10661095  RH  080%=      5-min Rain = 0
KPD4 140741Z 15008KT M07/M10 A3031 RMK A01 T10661095  RH  080%=      5-min Rain = 0
KPD4 140742Z 15009KT M07/M09 A3031 RMK A01 T10661094  RH  080%=      5-min Rain = 0
KPD4 140743Z 15008KT M07/M09 A3031 RMK A01 T10661094  RH  081%=      5-min Rain = 0
KPD4 140744Z 15008KT M07/M09 A3031 RMK A01 T10661094  RH  081%=      5-min Rain = 0
KPD4 140745Z 16009KT M07/M09 A3031 RMK A01 T10671094  RH  081%=      5-min Rain = 0
KPD4 140746Z 15009KT M07/M09 A3031 RMK A01 T10661094  RH  081%=      5-min Rain = 0
KPD4 140747Z 16010KT M07/M10 A3031 RMK A01 T10671095  RH  080%=      5-min Rain = 0
KPD4 140748Z 16010KT M07/M10 A3031 RMK A01 T10671096  RH  080%=      5-min Rain = 0
KPD4 140749Z 16009KT M07/M10 A3031 RMK A01 T10671096  RH  080%=      5-min Rain = 0
KPD4 140750Z 16008KT M07/M10 A3031 RMK A01 T10671096  RH  080%=      5-min Rain = 0
KPD4 140751Z 16009KT M07/M10 A3031 RMK A01 T10671096  RH  080%=      5-min Rain = 0
KPD4 140752Z 16008KT M07/M10 A3031 RMK A01 T10671096  RH  080%=      5-min Rain = 0
KPD4 140753Z 15009KT M07/M10 A3031 RMK A01 T10671095  RH  081%=      5-min Rain = 0
KPD4 140754Z 15009KT M07/M10 A3031 RMK A01 T10671095  RH  081%=      5-min Rain = 0
KPD4 140755Z 15010KT M07/M10 A3031 RMK A01 T10671095  RH  081%=      5-min Rain = 0
KPD4 140756Z 15009KT M07/M10 A3031 RMK A01 T10671095  RH  081%=      5-min Rain = 0
KPD4 140757Z 15010KT M07/M10 A3031 RMK A01 T10671095  RH  081%=      5-min Rain = 0
KPD4 140758Z 15010KT M07/M10 A3031 RMK A01 T10671095  RH  081%=      5-min Rain = 0
KPD4 140759Z 15008KT M07/M10 A3031 RMK A01 T10681095  RH  081%=      5-min Rain = 0
KPD4 140800Z 16009KT M07/M10 A3031 RMK A01 T10681095  RH  081%=      5-min Rain = 0
KPD4 140801Z 16009KT M07/M10 A3031 RMK A01 T10681095  RH  081%=      5-min Rain = 0
KPD4 140802Z 15009KT M07/M09 A3031 RMK A01 T10681094  RH  081%=      5-min Rain = 0
KPD4 140803Z 16010KT M07/M09 A3031 RMK A01 T10671094  RH  081%=      5-min Rain = 0
KPD4 140804Z 16010KT M07/M10 A3031 RMK A01 T10671095  RH  081%=      5-min Rain = 0
KPD4 140805Z 16010KT M07/M10 A3031 RMK A01 T10671095  RH  081%=      5-min Rain = 0
KPD4 140806Z 16009KT M07/M10 A3031 RMK A01 T10671095  RH  081%=      5-min Rain = 0
KPD4 140807Z 16009KT M07/M10 A3031 RMK A01 T10671095  RH  081%=      5-min Rain = 0
KPD4 140808Z 16009KT M07/M10 A3031 RMK A01 T10671095  RH  081%=      5-min Rain = 0
KPD4 140809Z 16010KT M07/M10 A3031 RMK A01 T10671095  RH  081%=      5-min Rain = 0
KPD4 140810Z 16010KT M07/M10 A303 RMK A01 T10671095  RH  081%=      5-min Rain = 0
KPD4 140811Z 15010KT M07/M10 A303 RMK A01 T10671095  RH  081%=      5-min Rain = 0
KPD4 140812Z 15010KT M07/M10 A303 RMK A01 T10671095  RH  081%=      5-min Rain = 0
KPD4 140813Z 15009KT M07/M10 A303 RMK A01 T10671095  RH  080%=      5-min Rain = 0
KPD4 140814Z 16010KT M07/M10 A303 RMK A01 T10671096  RH  080%=      5-min Rain = 0
KPD4 140815Z 16010KT M07/M10 A303 RMK A01 T10671096  RH  080%=      5-min Rain = 0
KPD4 140816Z 16010KT M07/M10 A303 RMK A01 T10671096  RH  080%=      5-min Rain = 0
KPD4 140817Z 17008KT M07/M10 A303 RMK A01 T10671096  RH  080%=      5-min Rain = 0
KPD4 140818Z 17008KT M07/M10 A303 RMK A01 T10671096  RH  080%=      5-min Rain = 0
KPD4 140819Z 17008KT M07/M10 A303 RMK A01 T10671096  RH  080%=      5-min Rain = 0
KPD4 140820Z 17008KT M07/M10 A303 RMK A01 T10671096  RH  080%=      5-min Rain = 0
KPD4 140821Z 16007KT M07/M10 A303 RMK A01 T10671096  RH  080%=      5-min Rain = 0
KPD4 140822Z 15010KT M07/M10 A303 RMK A01 T10661095  RH  080%=      5-min Rain = 0
KPD4 140823Z 15009KT M07/M10 A303 RMK A01 T10671096  RH  079%=      5-min Rain = 0
KPD4 140824Z 16008KT M07/M10 A303 RMK A01 T10671097  RH  079%=      5-min Rain = 0
KPD4 140825Z 16008KT M07/M10 A303 RMK A01 T10671096  RH  080%=      5-min Rain = 0
KPD4 140826Z 17008KT M07/M10 A303 RMK A01 T10671096  RH  080%=      5-min Rain = 0
KPD4 140827Z 17009KT M07/M10 A303 RMK A01 T10671096  RH  080%=      5-min Rain = 0
KPD4 140828Z 16009KT M07/M10 A303 RMK A01 T10671097  RH  080%=      5-min Rain = 0
KPD4 140829Z 16008KT M07/M10 A303 RMK A01 T10671097  RH  080%=      5-min Rain = 0
KPD4 140830Z 16009KT M07/M10 A303 RMK A01 T10671096  RH  080%=      5-min Rain = 0
KPD4 140831Z 16007KT M07/M10 A303 RMK A01 T10671096  RH  080%=      5-min Rain = 0
KPD4 140832Z 16006KT M07/M10 A303 RMK A01 T10671096  RH  080%=      5-min Rain = 0
KPD4 140833Z 16009KT M07/M10 A303 RMK A01 T10671095  RH  080%=      5-min Rain = 0
KPD4 140834Z 16009KT M07/M10 A303 RMK A01 T10671096  RH  080%=      5-min Rain = 0
KPD4 140835Z 16009KT M07/M10 A303 RMK A01 T10671096  RH  080%=      5-min Rain = 0
KPD4 140836Z 16009KT M07/M10 A3031 RMK A01 T10671096  RH  080%=      5-min Rain = 0
KPD4 140837Z 16009KT M07/M10 A3031 RMK A01 T10671096  RH  080%=      5-min Rain = 0
KPD4 140838Z 16009KT M07/M10 A303 RMK A01 T10671096  RH  080%=      5-min Rain = 0
KPD4 140839Z 17010KT M07/M10 A303 RMK A01 T10671096  RH  080%=      5-min Rain = 0
KPD4 140840Z 17009KT M07/M10 A303 RMK A01 T10671096  RH  080%=      5-min Rain = 0
KPD4 140841Z 17010KT M07/M10 A303 RMK A01 T10671096  RH  080%=      5-min Rain = 0
KPD4 140842Z 17008KT M07/M10 A3031 RMK A01 T10681096  RH  080%=      5-min Rain = 0
KPD4 140843Z 16009KT M07/M10 A3031 RMK A01 T10671096  RH  080%=      5-min Rain = 0
KPD4 140844Z 16009KT M07/M10 A3031 RMK A01 T10671096  RH  080%=      5-min Rain = 0
KPD4 140845Z 17009KT M07/M10 A3031 RMK A01 T10671096  RH  080%=      5-min Rain = 0
KPD4 140846Z 17008KT M07/M10 A3031 RMK A01 T10671096  RH  080%=      5-min Rain = 0
KPD4 140847Z 17007KT M07/M10 A303 RMK A01 T10681095  RH  081%=      5-min Rain = 0
KPD4 140848Z 17007KT M07/M10 A303 RMK A01 T10671095  RH  081%=      5-min Rain = 0
KPD4 140849Z 17008KT M07/M10 A303 RMK A01 T10671095  RH  081%=      5-min Rain = 0
KPD4 140850Z 17008KT M07/M10 A303 RMK A01 T10671095  RH  081%=      5-min Rain = 0
KPD4 140851Z 17008KT M07/M10 A303 RMK A01 T10671095  RH  081%=      5-min Rain = 0
KPD4 140852Z 16008KT M07/M10 A303 RMK A01 T10671095  RH  081%=      5-min Rain = 0
KPD4 140853Z 17008KT M07/M10 A303 RMK A01 T10661095  RH  080%=      5-min Rain = 0
KPD4 140854Z 17006KT M07/M09 A303 RMK A01 T10661094  RH  080%=      5-min Rain = 0
KPD4 140855Z 17007KT M07/M09 A303 RMK A01 T10661094  RH  080%=      5-min Rain = 0
KPD4 140856Z 17007KT M07/M09 A303 RMK A01 T10661094  RH  080%=      5-min Rain = 0
KPD4 140857Z 17007KT M07/M09 A303 RMK A01 T10661094  RH  080%=      5-min Rain = 0
KPD4 140858Z 18007KT M07/M09 A303 RMK A01 T10661094  RH  080%=      5-min Rain = 0
KPD4 140859Z 18008KT M07/M09 A303 RMK A01 T10651094  RH  080%=      5-min Rain = 0
KPD4 140900Z 17007KT M07/M09 A303 RMK A01 T10661094  RH  080%=      5-min Rain = 0
KPD4 140901Z 17009KT M07/M09 A303 RMK A01 T10661094  RH  081%=      5-min Rain = 0
KPD4 140902Z 17008KT M07/M09 A303 RMK A01 T10661094  RH  081%=      5-min Rain = 0
KPD4 140903Z 17007KT M07/M09 A303 RMK A01 T10671094  RH  081%=      5-min Rain = 0
KPD4 140904Z 17006KT M07/M09 A303 RMK A01 T10661094  RH  081%=      5-min Rain = 0
KPD4 140905Z 17006KT M07/M09 A303 RMK A01 T10661093  RH  081%=      5-min Rain = 0
KPD4 140906Z 17007KT M07/M09 A303 RMK A01 T10661093  RH  081%=      5-min Rain = 0
KPD4 140907Z 17008KT M07/M09 A303 RMK A01 T10661093  RH  081%=      5-min Rain = 0
KPD4 140908Z 18009KT M07/M09 A303 RMK A01 T10661094  RH  081%=      5-min Rain = 0
KPD4 140909Z 17009KT M07/M09 A303 RMK A01 T10661094  RH  080%=      5-min Rain = 0
KPD4 140910Z 17008KT M07/M10 A303 RMK A01 T10661095  RH  080%=      5-min Rain = 0
KPD4 140911Z 17009KT M07/M09 A303 RMK A01 T10661094  RH  080%=      5-min Rain = 0
KPD4 140912Z 17009KT M07/M09 A303 RMK A01 T10661094  RH  080%=      5-min Rain = 0
KPD4 140913Z 18009KT M07/M09 A303 RMK A01 T10661094  RH  080%=      5-min Rain = 0
KPD4 140914Z 17009KT M07/M09 A303 RMK A01 T10661094  RH  080%=      5-min Rain = 0
KPD4 140915Z 17009KT M07/M09 A303 RMK A01 T10661094  RH  080%=      5-min Rain = 0
KPD4 140916Z 17009KT M07/M09 A303 RMK A01 T10651094  RH  080%=      5-min Rain = 0
KPD4 140917Z 17009KT M07/M09 A303 RMK A01 T10661094  RH  080%=      5-min Rain = 0
KPD4 140918Z 17008KT M07/M09 A303 RMK A01 T10661094  RH  080%=      5-min Rain = 0
KPD4 140919Z 18008KT M07/M09 A303 RMK A01 T10651094  RH  080%=      5-min Rain = 0
KPD4 140920Z 17006KT M07/M09 A303 RMK A01 T10661094  RH  080%=      5-min Rain = 0
KPD4 140921Z 17007KT M07/M09 A303 RMK A01 T10651093  RH  081%=      5-min Rain = 0
KPD4 140922Z 17007KT M07/M09 A303 RMK A01 T10661093  RH  081%=      5-min Rain = 0
KPD4 140923Z 17008KT M07/M09 A303 RMK A01 T10651093  RH  081%=      5-min Rain = 0
KPD4 140924Z 17009KT M07/M09 A303 RMK A01 T10651093  RH  081%=      5-min Rain = 0
KPD4 140925Z 17010KT M07/M09 A3029 RMK A01 T10651093  RH  080%=      5-min Rain = 0
KPD4 140926Z 17009KT M07/M09 A3029 RMK A01 T10651093  RH  080%=      5-min Rain = 0
KPD4 140927Z 17008KT M07/M09 A3029 RMK A01 T10651094  RH  080%=      5-min Rain = 0
KPD4 140928Z 17010KT M07/M09 A3029 RMK A01 T10651093  RH  080%=      5-min Rain = 0
KPD4 140929Z 16009KT M07/M09 A3029 RMK A01 T10651094  RH  080%=      5-min Rain = 0
KPD4 140930Z 17009KT M07/M09 A3029 RMK A01 T10661094  RH  080%=      5-min Rain = 0
KPD4 140931Z 17008KT M07/M09 A3029 RMK A01 T10651094  RH  080%=      5-min Rain = 0
KPD4 140932Z 17010KT M07/M09 A3029 RMK A01 T10661094  RH  080%=      5-min Rain = 0
KPD4 140933Z 17010KT M07/M09 A3029 RMK A01 T10651094  RH  080%=      5-min Rain = 0
KPD4 140934Z 17008KT M07/M10 A3029 RMK A01 T10661095  RH  080%=      5-min Rain = 0
KPD4 140935Z 18009KT M07/M09 A3029 RMK A01 T10651094  RH  080%=      5-min Rain = 0
KPD4 140936Z 17010KT M07/M09 A3029 RMK A01 T10651094  RH  080%=      5-min Rain = 0
KPD4 140937Z 17010KT M07/M09 A3029 RMK A01 T10651093  RH  080%=      5-min Rain = 0
KPD4 140938Z 17009KT M07/M09 A3029 RMK A01 T10651094  RH  080%=      5-min Rain = 0
KPD4 140939Z 17009KT M07/M09 A3029 RMK A01 T10651094  RH  080%=      5-min Rain = 0
KPD4 140940Z 17010KT M07/M09 A3029 RMK A01 T10651093  RH  080%=      5-min Rain = 0
KPD4 140941Z 17010KT M07/M09 A3029 RMK A01 T10651093  RH  080%=      5-min Rain = 0
KPD4 140942Z 17010KT M07/M09 A3029 RMK A01 T10651093  RH  080%=      5-min Rain = 0
KPD4 140943Z 18008KT M07/M09 A3029 RMK A01 T10651093  RH  080%=      5-min Rain = 0
KPD4 140944Z 18009KT M07/M09 A3029 RMK A01 T10651093  RH  081%=      5-min Rain = 0
KPD4 140945Z 18010KT M07/M09 A3029 RMK A01 T10651093  RH  081%=      5-min Rain = 0
KPD4 140946Z 17009KT M07/M09 A3029 RMK A01 T10651093  RH  081%=      5-min Rain = 0
KPD4 140947Z 17010KT M07/M09 A3029 RMK A01 T10651093  RH  081%=      5-min Rain = 0
KPD4 140948Z 17011KT M06/M09 A3029 RMK A01 T10641092  RH  081%=      5-min Rain = 0
KPD4 140949Z 17009KT M07/M09 A3029 RMK A01 T10651092  RH  081%=      5-min Rain = 0
KPD4 140950Z 17009KT M06/M09 A3029 RMK A01 T10641092  RH  081%=      5-min Rain = 0
KPD4 140951Z 17009KT M07/M09 A3029 RMK A01 T10651092  RH  081%=      5-min Rain = 0
KPD4 140952Z 17009KT M06/M09 A3029 RMK A01 T10641091  RH  081%=      5-min Rain = 0
KPD4 140953Z 17009KT M06/M09 A3029 RMK A01 T10641091  RH  081%=      5-min Rain = 0
KPD4 140954Z 17010KT M06/M09 A3029 RMK A01 T10641091  RH  081%=      5-min Rain = 0
KPD4 140955Z 17010KT M06/M09 A3029 RMK A01 T10641091  RH  081%=      5-min Rain = 0
KPD4 140956Z 17009KT M06/M09 A3029 RMK A01 T10641091  RH  081%=      5-min Rain = 0
KPD4 140957Z 18009KT M06/M09 A3029 RMK A01 T10641091  RH  081%=      5-min Rain = 0
KPD4 140958Z 17009KT M06/M09 A3029 RMK A01 T10631091  RH  081%=      5-min Rain = 0
KPD4 140959Z 17010KT M06/M09 A3029 RMK A01 T10631090  RH  081%=      5-min Rain = 0
KPD4 141000Z 18010KT M06/M09 A3029 RMK A01 T10631090  RH  081%=      5-min Rain = 0
KPD4 141001Z 18010KT M06/M09 A3029 RMK A01 T10631090  RH  081%=      5-min Rain = 0
KPD4 141002Z 18010KT M06/M09 A3029 RMK A01 T10621090  RH  081%=      5-min Rain = 0
KPD4 141003Z 18011KT M06/M09 A3029 RMK A01 T10621090  RH  081%=      5-min Rain = 0
KPD4 141004Z 18010KT M06/M09 A3029 RMK A01 T10621090  RH  080%=      5-min Rain = 0
KPD4 141005Z 18010KT M06/M09 A3029 RMK A01 T10621090  RH  080%=      5-min Rain = 0
KPD4 141006Z 18011KT M06/M09 A3029 RMK A01 T10621090  RH  080%=      5-min Rain = 0
KPD4 141007Z 17011KT M06/M09 A3029 RMK A01 T10611090  RH  080%=      5-min Rain = 0
KPD4 141008Z 17011KT M06/M09 A3029 RMK A01 T10611091  RH  080%=      5-min Rain = 0
KPD4 141009Z 18011KT M06/M09 A3029 RMK A01 T10611091  RH  079%=      5-min Rain = 0
KPD4 141010Z 17012KT M06/M09 A3028 RMK A01 T10621092  RH  079%=      5-min Rain = 0
KPD4 141011Z 18012KT M06/M09 A3028 RMK A01 T10611092  RH  079%=      5-min Rain = 0
KPD4 141012Z 18011KT M06/M09 A3028 RMK A01 T10611092  RH  079%=      5-min Rain = 0
KPD4 141013Z 18009KT M06/M09 A3029 RMK A01 T10621092  RH  079%=      5-min Rain = 0
KPD4 141014Z 19010KT M06/M09 A3029 RMK A01 T10611091  RH  079%=      5-min Rain = 0
KPD4 141015Z 19012KT M06/M09 A3029 RMK A01 T10621092  RH  079%=      5-min Rain = 0
KPD4 141016Z 19013KT M06/M09 A3029 RMK A01 T10611092  RH  079%=      5-min Rain = 0
KPD4 141017Z 19012KT M06/M09 A3029 RMK A01 T10621093  RH  079%=      5-min Rain = 0
KPD4 141018Z 19010KT M06/M09 A3029 RMK A01 T10621092  RH  079%=      5-min Rain = 0
KPD4 141019Z 19011KT M06/M09 A3029 RMK A01 T10621092  RH  079%=      5-min Rain = 0
KPD4 141020Z 19009KT M06/M09 A3029 RMK A01 T10621092  RH  079%=      5-min Rain = 0
KPD4 141021Z 19011KT M06/M09 A3029 RMK A01 T10621091  RH  080%=      5-min Rain = 0
KPD4 141022Z 19012KT M06/M09 A3029 RMK A01 T10621092  RH  080%=      5-min Rain = 0
KPD4 141023Z 19011KT M06/M09 A3029 RMK A01 T10621092  RH  079%=      5-min Rain = 0
KPD4 141024Z 19012KT M06/M09 A3029 RMK A01 T10621091  RH  080%=      5-min Rain = 0
KPD4 141025Z 19010KT M06/M09 A3029 RMK A01 T10621092  RH  079%=      5-min Rain = 0
KPD4 141026Z 18009KT M06/M09 A3029 RMK A01 T10621092  RH  080%=      5-min Rain = 0
KPD4 141027Z 19010KT M06/M09 A3029 RMK A01 T10621092  RH  080%=      5-min Rain = 0
KPD4 141028Z 19012KT M06/M09 A3029 RMK A01 T10621091  RH  080%=      5-min Rain = 0
KPD4 141029Z 19012KT M06/M09 A3029 RMK A01 T10621092  RH  079%=      5-min Rain = 0
KPD4 141030Z 19012KT M06/M09 A3029 RMK A01 T10621092  RH  079%=      5-min Rain = 0
KPD4 141031Z 19011KT M06/M09 A3028 RMK A01 T10621093  RH  079%=      5-min Rain = 0
KPD4 141032Z 19011KT M06/M09 A3028 RMK A01 T10621093  RH  079%=      5-min Rain = 0
KPD4 141033Z 19011KT M06/M09 A3028 RMK A01 T10611093  RH  079%=      5-min Rain = 0
KPD4 141034Z 18011KT M06/M09 A3028 RMK A01 T10621093  RH  078%=      5-min Rain = 0
KPD4 141035Z 19011KT M06/M09 A3028 RMK A01 T10611093  RH  078%=      5-min Rain = 0
KPD4 141036Z 19010KT M06/M09 A3028 RMK A01 T10611093  RH  078%=      5-min Rain = 0
KPD4 141037Z 18011KT M06/M09 A3028 RMK A01 T10611093  RH  078%=      5-min Rain = 0
KPD4 141038Z 18010KT M06/M09 A3028 RMK A01 T10611093  RH  078%=      5-min Rain = 0
KPD4 141039Z 18011KT M06/M09 A3028 RMK A01 T10611093  RH  078%=      5-min Rain = 0
KPD4 141040Z 19010KT M06/M09 A3028 RMK A01 T10611092  RH  078%=      5-min Rain = 0
KPD4 141041Z 18009KT M06/M09 A3028 RMK A01 T10611092  RH  078%=      5-min Rain = 0
KPD4 141042Z 18008KT M06/M09 A3028 RMK A01 T10601092  RH  079%=      5-min Rain = 0
KPD4 141043Z 18007KT M06/M09 A3028 RMK A01 T10611092  RH  079%=      5-min Rain = 0
KPD4 141044Z 17009KT M06/M09 A3028 RMK A01 T10601091  RH  079%=      5-min Rain = 0
KPD4 141045Z 17009KT M06/M09 A3028 RMK A01 T10611092  RH  079%=      5-min Rain = 0
KPD4 141046Z 17009KT M06/M09 A3028 RMK A01 T10601092  RH  078%=      5-min Rain = 0
KPD4 141047Z 17011KT M06/M09 A3028 RMK A01 T10611092  RH  078%=      5-min Rain = 0
KPD4 141048Z 18009KT M06/M09 A3028 RMK A01 T10611093  RH  078%=      5-min Rain = 0
KPD4 141049Z 17009KT M06/M09 A3028 RMK A01 T10601092  RH  078%=      5-min Rain = 0
KPD4 141050Z 17009KT M06/M09 A3028 RMK A01 T10601091  RH  078%=      5-min Rain = 0
KPD4 141051Z 17008KT M06/M09 A3028 RMK A01 T10601091  RH  079%=      5-min Rain = 0
KPD4 141052Z 17009KT M06/M09 A3027 RMK A01 T10601091  RH  079%=      5-min Rain = 0
KPD4 141053Z 17010KT M06/M09 A3027 RMK A01 T10601091  RH  079%=      5-min Rain = 0
KPD4 141054Z 17008KT M06/M09 A3027 RMK A01 T10601091  RH  079%=      5-min Rain = 0
KPD4 141055Z 17008KT M06/M09 A3027 RMK A01 T10601091  RH  079%=      5-min Rain = 0
KPD4 141056Z 17010KT M06/M09 A3027 RMK A01 T10601091  RH  079%=      5-min Rain = 0
KPD4 141057Z 16008KT M06/M09 A3027 RMK A01 T10601091  RH  078%=      5-min Rain = 0
KPD4 141058Z 17009KT M06/M09 A3027 RMK A01 T10601091  RH  078%=      5-min Rain = 0
KPD4 141059Z 17010KT M06/M09 A3027 RMK A01 T10601091  RH  078%=      5-min Rain = 0
KPD4 141100Z 17011KT M06/M09 A3027 RMK A01 T10591091  RH  078%=      5-min Rain = 0
KPD4 141101Z 17011KT M06/M09 A3027 RMK A01 T10591092  RH  077%=      5-min Rain = 0
KPD4 141102Z 17011KT M06/M09 A3027 RMK A01 T10591093  RH  077%=      5-min Rain = 0
KPD4 141103Z 17011KT M06/M09 A3027 RMK A01 T10591094  RH  077%=      5-min Rain = 0
KPD4 141104Z 17009KT M06/M09 A3027 RMK A01 T10591093  RH  076%=      5-min Rain = 0
KPD4 141105Z 16010KT M06/M09 A3027 RMK A01 T10591093  RH  077%=      5-min Rain = 0
KPD4 141106Z 16011KT M06/M09 A3027 RMK A01 T10591093  RH  077%=      5-min Rain = 0
KPD4 141107Z 16010KT M06/M09 A3027 RMK A01 T10581093  RH  077%=      5-min Rain = 0
KPD4 141108Z 16010KT M06/M09 A3027 RMK A01 T10581093  RH  077%=      5-min Rain = 0
KPD4 141109Z 16012KT M06/M09 A3027 RMK A01 T10581092  RH  077%=      5-min Rain = 0
KPD4 141110Z 17012KT M06/M09 A3027 RMK A01 T10581092  RH  077%=      5-min Rain = 0
KPD4 141111Z 16011KT M06/M09 A3027 RMK A01 T10581093  RH  077%=      5-min Rain = 0
KPD4 141112Z 17011KT M06/M09 A3027 RMK A01 T10581093  RH  076%=      5-min Rain = 0
KPD4 141113Z 17010KT M06/M09 A3027 RMK A01 T10581094  RH  076%=      5-min Rain = 0
KPD4 141114Z 16009KT M06/M09 A3027 RMK A01 T10581093  RH  076%=      5-min Rain = 0
KPD4 141115Z 16010KT M06/M09 A3027 RMK A01 T10581093  RH  076%=      5-min Rain = 0
KPD4 141116Z 16010KT M06/M09 A3026 RMK A01 T10571094  RH  076%=      5-min Rain = 0
KPD4 141117Z 16010KT M06/M09 A3026 RMK A01 T10571094  RH  075%=      5-min Rain = 0
KPD4 141118Z 16011KT M06/M09 A3026 RMK A01 T10571094  RH  075%=      5-min Rain = 0
KPD4 141119Z 16012KT M06/M09 A3026 RMK A01 T10581094  RH  075%=      5-min Rain = 0
KPD4 141120Z 16012KT M06/M09 A3026 RMK A01 T10571094  RH  075%=      5-min Rain = 0
KPD4 141121Z 16013KT M06/M10 A3026 RMK A01 T10581095  RH  075%=      5-min Rain = 0
KPD4 141122Z 16013KT M06/M10 A3026 RMK A01 T10581096  RH  075%=      5-min Rain = 0
KPD4 141123Z 16011KT M06/M10 A3026 RMK A01 T10581096  RH  074%=      5-min Rain = 0
KPD4 141124Z 16011KT M06/M10 A3026 RMK A01 T10581096  RH  074%=      5-min Rain = 0
KPD4 141125Z 16011KT M06/M10 A3026 RMK A01 T10581096  RH  074%=      5-min Rain = 0
KPD4 141126Z 16012KT M06/M10 A3026 RMK A01 T10571096  RH  074%=      5-min Rain = 0
KPD4 141127Z 16012KT M06/M10 A3026 RMK A01 T10571097  RH  074%=      5-min Rain = 0
KPD4 141128Z 16012KT M06/M10 A3026 RMK A01 T10571098  RH  073%=      5-min Rain = 0
KPD4 141129Z 17010KT M06/M10 A3026 RMK A01 T10571098  RH  073%=      5-min Rain = 0
KPD4 141130Z 16009KT M06/M10 A3026 RMK A01 T10571097  RH  073%=      5-min Rain = 0
KPD4 141131Z 16011KT M06/M10 A3026 RMK A01 T10571097  RH  073%=      5-min Rain = 0
KPD4 141132Z 17012KT M06/M10 A3026 RMK A01 T10571097  RH  073%=      5-min Rain = 0
KPD4 141133Z 16012G17KT M06/M10 A3026 RMK A01 T10571098  RH  072%=      5-min Rain = 0
KPD4 141134Z 16012KT M06/M10 A3026 RMK A01 T10571100  RH  072%=      5-min Rain = 0
KPD4 141135Z 16012KT M06/M10 A3026 RMK A01 T10571099  RH  072%=      5-min Rain = 0
KPD4 141136Z 16011KT M06/M10 A3026 RMK A01 T10571098  RH  073%=      5-min Rain = 0
KPD4 141137Z 16012KT M06/M10 A3026 RMK A01 T10571098  RH  073%=      5-min Rain = 0
KPD4 141138Z 16011KT M06/M10 A3026 RMK A01 T10571098  RH  073%=      5-min Rain = 0
KPD4 141139Z 16011KT M06/M10 A3026 RMK A01 T10571098  RH  073%=      5-min Rain = 0
KPD4 141140Z 16013KT M06/M10 A3025 RMK A01 T10571098  RH  073%=      5-min Rain = 0
KPD4 141141Z 16011KT M06/M10 A3025 RMK A01 T10561098  RH  072%=      5-min Rain = 0
KPD4 141142Z 16011KT M06/M10 A3025 RMK A01 T10571098  RH  072%=      5-min Rain = 0
KPD4 141143Z 16013KT M06/M10 A3025 RMK A01 T10561098  RH  072%=      5-min Rain = 0
KPD4 141144Z 17014KT M06/M10 A3025 RMK A01 T10561098  RH  072%=      5-min Rain = 0
KPD4 141145Z 16014KT M06/M10 A3025 RMK A01 T10571099  RH  072%=      5-min Rain = 0
KPD4 141146Z 16015KT M06/M10 A3025 RMK A01 T10561099  RH  072%=      5-min Rain = 0
KPD4 141147Z 17013KT M06/M10 A3025 RMK A01 T10571099  RH  072%=      5-min Rain = 0
KPD4 141148Z 17011KT M06/M10 A3025 RMK A01 T10571098  RH  073%=      5-min Rain = 0
KPD4 141149Z 17013G18KT M06/M10 A3025 RMK A01 T10571097  RH  073%=      5-min Rain = 0
KPD4 141150Z 17013KT M06/M10 A3025 RMK A01 T10571099  RH  072%=      5-min Rain = 0
KPD4 141151Z 17013KT M06/M10 A3025 RMK A01 T10571099  RH  072%=      5-min Rain = 0
KPD4 141152Z 16012KT M06/M10 A3025 RMK A01 T10571099  RH  072%=      5-min Rain = 0
KPD4 141153Z 17013KT M06/M10 A3025 RMK A01 T10571099  RH  072%=      5-min Rain = 0
KPD4 141154Z 17013KT M06/M10 A3025 RMK A01 T10571099  RH  072%=      5-min Rain = 0
KPD4 141155Z 17013KT M06/M10 A3025 RMK A01 T10571099  RH  072%=      5-min Rain = 0
KPD4 141156Z 17012KT M06/M10 A3025 RMK A01 T10571099  RH  072%=      5-min Rain = 0
KPD4 141157Z 17013KT M06/M10 A3025 RMK A01 T10571099  RH  072%=      5-min Rain = 0
KPD4 141158Z 17013KT M06/M10 A3025 RMK A01 T10571099  RH  072%=      5-min Rain = 0
KPD4 141159Z 17011KT M06/M10 A3025 RMK A01 T10571098  RH  072%=      5-min Rain = 0
KPD4 141200Z 16015KT M06/M10 A3025 RMK A01 T10571098  RH  073%=      5-min Rain = 0
KPD4 141201Z 17016KT M06/M10 A3025 RMK A01 T10571099  RH  072%=      5-min Rain = 0
KPD4 141202Z 17012KT M06/M10 A3025 RMK A01 T10571100  RH  072%=      5-min Rain = 0
KPD4 141203Z 17013KT M06/M10 A3025 RMK A01 T10571100  RH  072%=      5-min Rain = 0
KPD4 141204Z 17013KT M06/M10 A3025 RMK A01 T10571099  RH  072%=      5-min Rain = 0
KPD4 141205Z 17012KT M06/M10 A3025 RMK A01 T10571099  RH  072%=      5-min Rain = 0
KPD4 141206Z 17011KT M06/M10 A3025 RMK A01 T10571099  RH  073%=      5-min Rain = 0
KPD4 141207Z 17012KT M06/M10 A3025 RMK A01 T10571098  RH  073%=      5-min Rain = 0
KPD4 141208Z 17012KT M06/M10 A3025 RMK A01 T10571098  RH  073%=      5-min Rain = 0
KPD4 141209Z 16012KT M06/M10 A3025 RMK A01 T10571098  RH  073%=      5-min Rain = 0
KPD4 141210Z 17015KT M06/M10 A3025 RMK A01 T10571098  RH  073%=      5-min Rain = 0
KPD4 141211Z 17014KT M06/M10 A3025 RMK A01 T10571099  RH  073%=      5-min Rain = 0
KPD4 141212Z 17012KT M06/M10 A3025 RMK A01 T10571098  RH  073%=      5-min Rain = 0
KPD4 141213Z 17015KT M06/M10 A3025 RMK A01 T10571098  RH  073%=      5-min Rain = 0
KPD4 141214Z 17014KT M06/M10 A3025 RMK A01 T10571099  RH  073%=      5-min Rain = 0
KPD4 141215Z 17012KT M06/M10 A3025 RMK A01 T10571099  RH  073%=      5-min Rain = 0
KPD4 141216Z 18013KT M06/M10 A3025 RMK A01 T10571098  RH  073%=      5-min Rain = 0
KPD4 141217Z 18012KT M06/M10 A3025 RMK A01 T10571098  RH  073%=      5-min Rain = 0
KPD4 141218Z 17012KT M06/M10 A3025 RMK A01 T10571099  RH  072%=      5-min Rain = 0
KPD4 141219Z 17016KT M06/M10 A3025 RMK A01 T10571099  RH  072%=      5-min Rain = 0
KPD4 141220Z 17014KT M06/M10 A3025 RMK A01 T10571099  RH  072%=      5-min Rain = 0
KPD4 141221Z 17013KT M06/M10 A3025 RMK A01 T10571099  RH  072%=      5-min Rain = 0
KPD4 141222Z 17013KT M06/M10 A3025 RMK A01 T10571099  RH  072%=      5-min Rain = 0
KPD4 141223Z 17012KT M06/M10 A3025 RMK A01 T10571099  RH  072%=      5-min Rain = 0
KPD4 141224Z 17011KT M06/M10 A3025 RMK A01 T10571099  RH  072%=      5-min Rain = 0
KPD4 141225Z 16014KT M06/M10 A3025 RMK A01 T10571098  RH  072%=      5-min Rain = 0
KPD4 141226Z 17012KT M06/M10 A3025 RMK A01 T10571099  RH  072%=      5-min Rain = 0
KPD4 141227Z 17012G17KT M06/M10 A3025 RMK A01 T10571099  RH  072%=      5-min Rain = 0
KPD4 141228Z 17016KT M06/M10 A3025 RMK A01 T10571099  RH  072%=      5-min Rain = 0
KPD4 141229Z 17015KT M06/M10 A3025 RMK A01 T10571101  RH  071%=      5-min Rain = 0
KPD4 141230Z 17013KT M06/M10 A3025 RMK A01 T10571101  RH  071%=      5-min Rain = 0
KPD4 141231Z 17014KT M06/M10 A3025 RMK A01 T10571101  RH  072%=      5-min Rain = 0
KPD4 141232Z 17014KT M06/M10 A3025 RMK A01 T10571101  RH  071%=      5-min Rain = 0
KPD4 141233Z 17016KT M06/M10 A3025 RMK A01 T10571101  RH  071%=      5-min Rain = 0
KPD4 141234Z 17013KT M06/M10 A3025 RMK A01 T10571101  RH  071%=      5-min Rain = 0
KPD4 141235Z 17013KT M06/M10 A3025 RMK A01 T10571101  RH  071%=      5-min Rain = 0
KPD4 141236Z 17012KT M06/M10 A3025 RMK A01 T10571101  RH  071%=      5-min Rain = 0
KPD4 141237Z 17014KT M06/M10 A3025 RMK A01 T10571101  RH  072%=      5-min Rain = 0
KPD4 141238Z 17013KT M06/M10 A3025 RMK A01 T10571101  RH  072%=      5-min Rain = 0
KPD4 141239Z 18015KT M06/M10 A3025 RMK A01 T10571100  RH  072%=      5-min Rain = 0
KPD4 141240Z 18014KT M06/M10 A3025 RMK A01 T10571100  RH  072%=      5-min Rain = 0
KPD4 141241Z 16014KT M06/M10 A3025 RMK A01 T10571100  RH  072%=      5-min Rain = 0
KPD4 141242Z 17014KT M06/M10 A3025 RMK A01 T10571101  RH  072%=      5-min Rain = 0
KPD4 141243Z 17012KT M06/M10 A3025 RMK A01 T10571101  RH  072%=      5-min Rain = 0
KPD4 141244Z 17012KT M06/M10 A3025 RMK A01 T10571100  RH  072%=      5-min Rain = 0
KPD4 141245Z 17012KT M06/M10 A3025 RMK A01 T10571100  RH  072%=      5-min Rain = 0
KPD4 141246Z 17014G19KT M06/M10 A3025 RMK A01 T10571100  RH  072%=      5-min Rain = 0
KPD4 141247Z 17014KT M06/M10 A3025 RMK A01 T10571100  RH  072%=      5-min Rain = 0
KPD4 141248Z 18013G18KT M06/M10 A3025 RMK A01 T10581101  RH  072%=      5-min Rain = 0
KPD4 141249Z 18014KT M06/M10 A3025 RMK A01 T10581100  RH  072%=      5-min Rain = 0
KPD4 141250Z 16014KT M06/M10 A3025 RMK A01 T10581101  RH  072%=      5-min Rain = 0
KPD4 141251Z 17015KT M06/M10 A3025 RMK A01 T10581101  RH  072%=      5-min Rain = 0
KPD4 141252Z 17012KT M06/M10 A3025 RMK A01 T10581100  RH  072%=      5-min Rain = 0
KPD4 141253Z 17012KT M06/M10 A3025 RMK A01 T10581100  RH  072%=      5-min Rain = 0
KPD4 141254Z 17013KT M06/M10 A3025 RMK A01 T10581100  RH  072%=      5-min Rain = 0
KPD4 141255Z 18010KT M06/M10 A3025 RMK A01 T10581100  RH  073%=      5-min Rain = 0
KPD4 141256Z 17011G16KT M06/M10 A3025 RMK A01 T10581100  RH  073%=      5-min Rain = 0
KPD4 141257Z 17012KT M06/M10 A3025 RMK A01 T10581099  RH  073%=      5-min Rain = 0
KPD4 141258Z 17012KT M06/M10 A3025 RMK A01 T10581099  RH  073%=      5-min Rain = 0
KPD4 141259Z 18011KT M06/M10 A3025 RMK A01 T10581099  RH  073%=      5-min Rain = 0
KPD4 141300Z 18014KT M06/M10 A3025 RMK A01 T10581099  RH  073%=      5-min Rain = 0
KPD4 141301Z 17013KT M06/M10 A3025 RMK A01 T10581100  RH  072%=      5-min Rain = 0
KPD4 141302Z 17013KT M06/M10 A3025 RMK A01 T10581100  RH  072%=      5-min Rain = 0
KPD4 141303Z 17012KT M06/M10 A3025 RMK A01 T10581099  RH  073%=      5-min Rain = 0
KPD4 141304Z 17012KT M06/M10 A3025 RMK A01 T10591100  RH  073%=      5-min Rain = 0
KPD4 141305Z 17014KT M06/M10 A3025 RMK A01 T10591099  RH  073%=      5-min Rain = 0
KPD4 141306Z 17015KT M06/M10 A3025 RMK A01 T10591099  RH  073%=      5-min Rain = 0
KPD4 141307Z 16013KT M06/M10 A3025 RMK A01 T10591099  RH  073%=      5-min Rain = 0
KPD4 141308Z 16015KT M06/M10 A3025 RMK A01 T10591099  RH  073%=      5-min Rain = 0
KPD4 141309Z 18012KT M06/M10 A3025 RMK A01 T10591100  RH  073%=      5-min Rain = 0
KPD4 141310Z 17013KT M06/M10 A3025 RMK A01 T10591099  RH  073%=      5-min Rain = 0
KPD4 141311Z 18013KT M06/M10 A3025 RMK A01 T10591099  RH  073%=      5-min Rain = 0
KPD4 141312Z 17013KT M06/M10 A3025 RMK A01 T10591099  RH  073%=      5-min Rain = 0
KPD4 141313Z 17014KT M06/M10 A3025 RMK A01 T10591098  RH  073%=      5-min Rain = 0
KPD4 141314Z 17012KT M06/M10 A3025 RMK A01 T10591099  RH  073%=      5-min Rain = 0
KPD4 141315Z 17011KT M06/M10 A3025 RMK A01 T10581098  RH  074%=      5-min Rain = 0
KPD4 141316Z 17011KT M06/M10 A3025 RMK A01 T10581098  RH  074%=      5-min Rain = 0
KPD4 141317Z 17015KT M06/M10 A3025 RMK A01 T10581098  RH  073%=      5-min Rain = 0
KPD4 141318Z 17014KT M06/M10 A3025 RMK A01 T10571098  RH  073%=      5-min Rain = 0
KPD4 141319Z 17015KT M06/M10 A3025 RMK A01 T10571099  RH  073%=      5-min Rain = 0
KPD4 141320Z 17014KT M06/M10 A3025 RMK A01 T10571098  RH  073%=      5-min Rain = 0
KPD4 141321Z 17014KT M06/M10 A3025 RMK A01 T10571098  RH  073%=      5-min Rain = 0
KPD4 141322Z 17014KT M06/M10 A3025 RMK A01 T10571098  RH  073%=      5-min Rain = 0
KPD4 141323Z 17015KT M06/M10 A3025 RMK A01 T10571098  RH  073%=      5-min Rain = 0
KPD4 141324Z 17013KT M06/M10 A3025 RMK A01 T10581098  RH  073%=      5-min Rain = 0
KPD4 141325Z 17016KT M06/M10 A3025 RMK A01 T10571098  RH  073%=      5-min Rain = 0
KPD4 141326Z 17013KT M06/M10 A3024 RMK A01 T10571098  RH  073%=      5-min Rain = 0
KPD4 141327Z 17011KT M06/M10 A3024 RMK A01 T10571098  RH  073%=      5-min Rain = 0
KPD4 141328Z 17012KT M06/M10 A3024 RMK A01 T10571098  RH  073%=      5-min Rain = 0
KPD4 141329Z 17014KT M06/M10 A3024 RMK A01 T10571097  RH  073%=      5-min Rain = 0
KPD4 141330Z 18011KT M06/M10 A3024 RMK A01 T10571098  RH  073%=      5-min Rain = 0
KPD4 141331Z 17014KT M06/M10 A3024 RMK A01 T10571097  RH  073%=      5-min Rain = 0
KPD4 141332Z 18014KT M06/M10 A3024 RMK A01 T10571097  RH  073%=      5-min Rain = 0
KPD4 141333Z 17015KT M06/M10 A3024 RMK A01 T10571097  RH  073%=      5-min Rain = 0
KPD4 141334Z 18015KT M06/M10 A3024 RMK A01 T10571097  RH  073%=      5-min Rain = 0
KPD4 141335Z 18017KT M06/M10 A3024 RMK A01 T10571097  RH  073%=      5-min Rain = 0
KPD4 141336Z 18014KT M06/M10 A3024 RMK A01 T10561097  RH  073%=      5-min Rain = 0
KPD4 141337Z 18015KT M06/M10 A3024 RMK A01 T10561097  RH  073%=      5-min Rain = 0
KPD4 141338Z 18015KT M06/M10 A3024 RMK A01 T10561097  RH  073%=      5-min Rain = 0
KPD4 141339Z 18014G19KT M06/M10 A3024 RMK A01 T10561097  RH  073%=      5-min Rain = 0
KPD4 141340Z 18014KT M06/M10 A3024 RMK A01 T10551097  RH  073%=      5-min Rain = 0
KPD4 141341Z 18014KT M06/M10 A3024 RMK A01 T10551097  RH  072%=      5-min Rain = 0
KPD4 141342Z 18015KT M06/M10 A3024 RMK A01 T10551097  RH  072%=      5-min Rain = 0
KPD4 141343Z 18014KT M06/M10 A3024 RMK A01 T10551097  RH  072%=      5-min Rain = 0
KPD4 141344Z 18014KT M06/M10 A3024 RMK A01 T10551097  RH  072%=      5-min Rain = 0
KPD4 141345Z 18015KT M06/M10 A3024 RMK A01 T10551097  RH  072%=      5-min Rain = 0
KPD4 141346Z 18014KT M06/M10 A3024 RMK A01 T10551097  RH  072%=      5-min Rain = 0
KPD4 141347Z 18014KT M06/M10 A3024 RMK A01 T10551098  RH  072%=      5-min Rain = 0
KPD4 141348Z 18012KT M06/M10 A3024 RMK A01 T10551097  RH  072%=      5-min Rain = 0
KPD4 141349Z 19014KT M06/M10 A3024 RMK A01 T10551097  RH  072%=      5-min Rain = 0
KPD4 141350Z 18018KT M06/M10 A3024 RMK A01 T10551097  RH  072%=      5-min Rain = 0
KPD4 141351Z 18018KT M05/M10 A3024 RMK A01 T10541097  RH  072%=      5-min Rain = 0
KPD4 141352Z 18018KT M05/M10 A3024 RMK A01 T10541097  RH  072%=      5-min Rain = 0
KPD4 141353Z 18016KT M05/M10 A3024 RMK A01 T10541096  RH  072%=      5-min Rain = 0
KPD4 141354Z 18016KT M05/M10 A3024 RMK A01 T10541096  RH  072%=      5-min Rain = 0
KPD4 141355Z 18014KT M05/M10 A3024 RMK A01 T10541096  RH  072%=      5-min Rain = 0
KPD4 141356Z 18016G21KT M05/M10 A3024 RMK A01 T10541096  RH  072%=      5-min Rain = 0
KPD4 141357Z 18016KT M05/M10 A3024 RMK A01 T10541096  RH  072%=      5-min Rain = 0
KPD4 141358Z 18017KT M05/M10 A3024 RMK A01 T10541096  RH  072%=      5-min Rain = 0
KPD4 141359Z 18014KT M05/M10 A3024 RMK A01 T10531095  RH  073%=      5-min Rain = 0
KPD4 141400Z 18017KT M05/M10 A3024 RMK A01 T10541095  RH  073%=      5-min Rain = 0
KPD4 141401Z 18014KT M05/M10 A3024 RMK A01 T10541095  RH  073%=      5-min Rain = 0
KPD4 141402Z 18015KT M05/M09 A3024 RMK A01 T10531094  RH  073%=      5-min Rain = 0
KPD4 141403Z 18018KT M05/M09 A3024 RMK A01 T10531094  RH  073%=      5-min Rain = 0
KPD4 141404Z 18015KT M05/M09 A3024 RMK A01 T10531094  RH  073%=      5-min Rain = 0
KPD4 141405Z 18015KT M05/M09 A3024 RMK A01 T10531094  RH  073%=      5-min Rain = 0
KPD4 141406Z 19014KT M05/M09 A3024 RMK A01 T10531093  RH  073%=      5-min Rain = 0
KPD4 141407Z 18014KT M05/M09 A3024 RMK A01 T10521093  RH  073%=      5-min Rain = 0
KPD4 141408Z 18015KT M05/M09 A3024 RMK A01 T10521093  RH  073%=      5-min Rain = 0
KPD4 141409Z 18015KT M05/M09 A3024 RMK A01 T10521093  RH  073%=      5-min Rain = 0
KPD4 141410Z 18016KT M05/M09 A3024 RMK A01 T10521093  RH  073%=      5-min Rain = 0
KPD4 141411Z 18014G19KT M05/M09 A3024 RMK A01 T10521093  RH  073%=      5-min Rain = 0
KPD4 141412Z 18016KT M05/M09 A3024 RMK A01 T10521093  RH  073%=      5-min Rain = 0
KPD4 141413Z 18016KT M05/M09 A3024 RMK A01 T10511092  RH  073%=      5-min Rain = 0
KPD4 141414Z 18015KT M05/M09 A3024 RMK A01 T10511092  RH  073%=      5-min Rain = 0
KPD4 141415Z 18017KT M05/M09 A3024 RMK A01 T10511092  RH  073%=      5-min Rain = 0
KPD4 141416Z 18018KT M05/M09 A3024 RMK A01 T10511092  RH  073%=      5-min Rain = 0
KPD4 141417Z 18017KT M05/M09 A3024 RMK A01 T10511093  RH  073%=      5-min Rain = 0
KPD4 141418Z 18017KT M05/M09 A3024 RMK A01 T10521093  RH  073%=      5-min Rain = 0
KPD4 141419Z 18017KT M05/M09 A3024 RMK A01 T10521093  RH  073%=      5-min Rain = 0
KPD4 141420Z 18016KT M05/M09 A3024 RMK A01 T10521093  RH  073%=      5-min Rain = 0
KPD4 141421Z 18017KT M05/M09 A3024 RMK A01 T10521093  RH  073%=      5-min Rain = 0
KPD4 141422Z 18016KT M05/M09 A3024 RMK A01 T10521092  RH  073%=      5-min Rain = 0
KPD4 141423Z 18018G23KT M05/M09 A3024 RMK A01 T10511092  RH  073%=      5-min Rain = 0
KPD4 141424Z 18017KT M05/M09 A3024 RMK A01 T10511092  RH  073%=      5-min Rain = 0
KPD4 141425Z 18018KT M05/M09 A3024 RMK A01 T10511092  RH  073%=      5-min Rain = 0
KPD4 141426Z 18018KT M05/M09 A3024 RMK A01 T10511092  RH  073%=      5-min Rain = 0
KPD4 141427Z 18016KT M05/M09 A3024 RMK A01 T10511091  RH  073%=      5-min Rain = 0
KPD4 141428Z 18017KT M05/M09 A3024 RMK A01 T10511091  RH  074%=      5-min Rain = 0
KPD4 141429Z 18016KT M05/M09 A3024 RMK A01 T10511090  RH  074%=      5-min Rain = 0
KPD4 141430Z 18014KT M05/M09 A3024 RMK A01 T10501090  RH  074%=      5-min Rain = 0
KPD4 141431Z 18015KT M05/M09 A3024 RMK A01 T10491088  RH  074%=      5-min Rain = 0
KPD4 141432Z 18016KT M05/M09 A3024 RMK A01 T10491088  RH  074%=      5-min Rain = 0
KPD4 141433Z 18020KT M05/M09 A3024 RMK A01 T10491089  RH  074%=      5-min Rain = 0
KPD4 141434Z 18018KT M05/M09 A3024 RMK A01 T10491088  RH  074%=      5-min Rain = 0
KPD4 141435Z 18016KT M05/M09 A3024 RMK A01 T10491088  RH  074%=      5-min Rain = 0
KPD4 141436Z 18015KT M05/M09 A3024 RMK A01 T10481087  RH  074%=      5-min Rain = 0
KPD4 141437Z 18017KT M05/M09 A3024 RMK A01 T10481086  RH  074%=      5-min Rain = 0
KPD4 141438Z 18016KT M05/M09 A3024 RMK A01 T10471086  RH  074%=      5-min Rain = 0
KPD4 141439Z 18016G21KT M05/M09 A3024 RMK A01 T10471087  RH  074%=      5-min Rain = 0
KPD4 141440Z 19019KT M05/M09 A3024 RMK A01 T10471087  RH  074%=      5-min Rain = 0
KPD4 141441Z 18017KT M05/M09 A3024 RMK A01 T10471087  RH  074%=      5-min Rain = 0
KPD4 141442Z 18017G22KT M05/M09 A3024 RMK A01 T10471086  RH  074%=      5-min Rain = 0
KPD4 141443Z 18017KT M05/M09 A3024 RMK A01 T10461086  RH  074%=      5-min Rain = 0
KPD4 141444Z 18018KT M05/M09 A3024 RMK A01 T10461086  RH  074%=      5-min Rain = 0
KPD4 141445Z 18018KT M05/M09 A3024 RMK A01 T10471087  RH  073%=      5-min Rain = 0
KPD4 141446Z 18017KT M05/M09 A3024 RMK A01 T10461087  RH  073%=      5-min Rain = 0
KPD4 141447Z 18020KT M05/M09 A3024 RMK A01 T10461088  RH  073%=      5-min Rain = 0
KPD4 141448Z 18017KT M05/M09 A3024 RMK A01 T10471089  RH  073%=      5-min Rain = 0
KPD4 141449Z 19018KT M05/M09 A3024 RMK A01 T10471089  RH  072%=      5-min Rain = 0
KPD4 141450Z 18014KT M05/M09 A3024 RMK A01 T10471089  RH  072%=      5-min Rain = 0
KPD4 141451Z 19018KT M05/M09 A3024 RMK A01 T10471089  RH  072%=      5-min Rain = 0
KPD4 141452Z 19019KT M05/M09 A3024 RMK A01 T10461090  RH  072%=      5-min Rain = 0
KPD4 141453Z 18014KT M05/M09 A3024 RMK A01 T10471090  RH  071%=      5-min Rain = 0
KPD4 141454Z 18015KT M05/M09 A3024 RMK A01 T10461089  RH  072%=      5-min Rain = 0
KPD4 141455Z 19016KT M05/M09 A3024 RMK A01 T10461090  RH  071%=      5-min Rain = 0
KPD4 141456Z 19015KT M05/M09 A3024 RMK A01 T10461091  RH  071%=      5-min Rain = 0
KPD4 141457Z 19016G21KT M05/M09 A3024 RMK A01 T10461091  RH  071%=      5-min Rain = 0
KPD4 141458Z 18018KT M05/M09 A3024 RMK A01 T10461091  RH  071%=      5-min Rain = 0
KPD4 141459Z 18017KT M05/M09 A3024 RMK A01 T10461091  RH  071%=      5-min Rain = 0
KPD4 141500Z 19015KT M05/M09 A3024 RMK A01 T10461091  RH  071%=      5-min Rain = 0
KPD4 141501Z 19017KT M05/M09 A3024 RMK A01 T10461091  RH  071%=      5-min Rain = 0
KPD4 141502Z 18015G20KT M05/M09 A3024 RMK A01 T10451091  RH  070%=      5-min Rain = 0
KPD4 141503Z 19015G20KT M05/M09 A3024 RMK A01 T10451091  RH  071%=      5-min Rain = 0
KPD4 141504Z 19016KT M05/M09 A3024 RMK A01 T10451090  RH  071%=      5-min Rain = 0
KPD4 141505Z 19017KT M04/M09 A3024 RMK A01 T10441090  RH  070%=      5-min Rain = 0
KPD4 141506Z 18017KT M04/M09 A3024 RMK A01 T10441090  RH  070%=      5-min Rain = 0
KPD4 141507Z 19016KT M05/M09 A3024 RMK A01 T10451091  RH  070%=      5-min Rain = 0
KPD4 141508Z 18015KT M04/M09 A3024 RMK A01 T10441090  RH  070%=      5-min Rain = 0
KPD4 141509Z 19015KT M04/M09 A3024 RMK A01 T10441090  RH  070%=      5-min Rain = 0
KPD4 141510Z 18014KT M04/M09 A3024 RMK A01 T10441090  RH  070%=      5-min Rain = 0
KPD4 141511Z 19016KT M04/M09 A3024 RMK A01 T10431089  RH  070%=      5-min Rain = 0
KPD4 141512Z 19017KT M04/M09 A3024 RMK A01 T10431090  RH  070%=      5-min Rain = 0
KPD4 141513Z 18019KT M04/M09 A3025 RMK A01 T10431090  RH  070%=      5-min Rain = 0
KPD4 141514Z 18018KT M04/M09 A3025 RMK A01 T10441090  RH  070%=      5-min Rain = 0
KPD4 141515Z 19019KT M04/M09 A3025 RMK A01 T10441090  RH  070%=      5-min Rain = 0
KPD4 141516Z 18017KT M04/M09 A3025 RMK A01 T10441090  RH  070%=      5-min Rain = 0
KPD4 141517Z 18018G24KT M04/M09 A3025 RMK A01 T10431089  RH  070%=      5-min Rain = 0
KPD4 141518Z 17019KT M04/M09 A3025 RMK A01 T10421088  RH  070%=      5-min Rain = 0
KPD4 141519Z 18017KT M04/M09 A3025 RMK A01 T10421088  RH  070%=      5-min Rain = 0
KPD4 141520Z 18019KT M04/M09 A3025 RMK A01 T10411087  RH  070%=      5-min Rain = 0
KPD4 141521Z 18016KT M04/M09 A3025 RMK A01 T10411088  RH  070%=      5-min Rain = 0
KPD4 141522Z 18018KT M04/M09 A3025 RMK A01 T10411087  RH  070%=      5-min Rain = 0
KPD4 141523Z 18018KT M04/M09 A3025 RMK A01 T10411087  RH  070%=      5-min Rain = 0
KPD4 141524Z 18017KT M04/M09 A3025 RMK A01 T10411087  RH  070%=      5-min Rain = 0
KPD4 141525Z 18015KT M04/M09 A3025 RMK A01 T10411087  RH  071%=      5-min Rain = 0
KPD4 141526Z 18017KT M04/M09 A3025 RMK A01 T10401086  RH  071%=      5-min Rain = 0
KPD4 141527Z 19015KT M04/M09 A3025 RMK A01 T10391085  RH  070%=      5-min Rain = 0
KPD4 141528Z 18017KT M04/M09 A3025 RMK A01 T10391085  RH  071%=      5-min Rain = 0
KPD4 141529Z 18017KT M04/M09 A3025 RMK A01 T10391085  RH  070%=      5-min Rain = 0
KPD4 141530Z 19018KT M04/M09 A3025 RMK A01 T10381085  RH  070%=      5-min Rain = 0
KPD4 141531Z 18014G19KT M04/M09 A3025 RMK A01 T10391085  RH  070%=      5-min Rain = 0
KPD4 141532Z 18016KT M04/M08 A3025 RMK A01 T10381084  RH  070%=      5-min Rain = 0
KPD4 141533Z 19016KT M04/M08 A3025 RMK A01 T10381084  RH  070%=      5-min Rain = 0
KPD4 141534Z 18016KT M04/M08 A3024 RMK A01 T10381084  RH  070%=      5-min Rain = 0
KPD4 141535Z 18018KT M04/M08 A3024 RMK A01 T10381084  RH  070%=      5-min Rain = 0
KPD4 141536Z 18018KT M04/M08 A3024 RMK A01 T10381084  RH  070%=      5-min Rain = 0
KPD4 141537Z 19018KT M04/M08 A3024 RMK A01 T10381084  RH  070%=      5-min Rain = 0
KPD4 141538Z 19016KT M04/M08 A3024 RMK A01 T10381084  RH  070%=      5-min Rain = 0
KPD4 141539Z 18017G22KT M04/M08 A3024 RMK A01 T10371084  RH  070%=      5-min Rain = 0
KPD4 141540Z 18020KT M04/M08 A3024 RMK A01 T10371084  RH  070%=      5-min Rain = 0
KPD4 141541Z 19022KT M04/M08 A3024 RMK A01 T10371084  RH  070%=      5-min Rain = 0
KPD4 141542Z 19021KT M04/M08 A3024 RMK A01 T10371084  RH  070%=      5-min Rain = 0
KPD4 141543Z 19020KT M04/M08 A3024 RMK A01 T10371084  RH  070%=      5-min Rain = 0
KPD4 141544Z 18017KT M04/M08 A3024 RMK A01 T10371084  RH  070%=      5-min Rain = 0
KPD4 141545Z 18018KT M04/M08 A3024 RMK A01 T10371083  RH  070%=      5-min Rain = 0
KPD4 141546Z 19018KT M04/M08 A3024 RMK A01 T10361083  RH  070%=      5-min Rain = 0
KPD4 141547Z 19017KT M04/M08 A3024 RMK A01 T10351082  RH  070%=      5-min Rain = 0
KPD4 141548Z 19016KT M04/M08 A3024 RMK A01 T10351083  RH  070%=      5-min Rain = 0
KPD4 141549Z 19017KT M03/M08 A3024 RMK A01 T10341081  RH  070%=      5-min Rain = 0
KPD4 141550Z 18018KT M03/M08 A3024 RMK A01 T10331080  RH  070%=      5-min Rain = 0
KPD4 141551Z 19017G22KT M03/M08 A3024 RMK A01 T10331081  RH  069%=      5-min Rain = 0
KPD4 141552Z 19020KT M03/M08 A3024 RMK A01 T10331081  RH  069%=      5-min Rain = 0
KPD4 141553Z 19018KT M03/M08 A3024 RMK A01 T10341082  RH  069%=      5-min Rain = 0
KPD4 141554Z 19020KT M03/M08 A3024 RMK A01 T10341081  RH  069%=      5-min Rain = 0
KPD4 141555Z 19019KT M03/M08 A3024 RMK A01 T10331081  RH  069%=      5-min Rain = 0
KPD4 141556Z 19020KT M03/M08 A3023 RMK A01 T10331081  RH  070%=      5-min Rain = 0
KPD4 141557Z 19018KT M03/M08 A3023 RMK A01 T10331081  RH  069%=      5-min Rain = 0
KPD4 141558Z 19020KT M03/M08 A3023 RMK A01 T10331080  RH  070%=      5-min Rain = 0
KPD4 141559Z 19021KT M03/M08 A3023 RMK A01 T10331080  RH  070%=      5-min Rain = 0
KPD4 141600Z 19020G25KT M03/M08 A3023 RMK A01 T10321080  RH  070%=      5-min Rain = 0
KPD4 141601Z 19022G27KT M03/M08 A3023 RMK A01 T10321079  RH  070%=      5-min Rain = 0
KPD4 141602Z 19023KT M03/M08 A3023 RMK A01 T10321079  RH  070%=      5-min Rain = 0
KPD4 141603Z 18022KT M03/M08 A3023 RMK A01 T10321079  RH  070%=      5-min Rain = 0
KPD4 141604Z 19019KT M03/M08 A3023 RMK A01 T10311078  RH  070%=      5-min Rain = 0
KPD4 141605Z 19020KT M03/M08 A3023 RMK A01 T10301077  RH  070%=      5-min Rain = 0
KPD4 141606Z 19020KT M03/M08 A3023 RMK A01 T10301077  RH  070%=      5-min Rain = 0
KPD4 141607Z 18019KT M03/M08 A3023 RMK A01 T10291077  RH  070%=      5-min Rain = 0
KPD4 141608Z 19021KT M03/M08 A3023 RMK A01 T10291076  RH  070%=      5-min Rain = 0
KPD4 141609Z 19021KT M03/M08 A3023 RMK A01 T10291076  RH  070%=      5-min Rain = 0
KPD4 141610Z 19019KT M03/M08 A3023 RMK A01 T10281075  RH  070%=      5-min Rain = 0
KPD4 141611Z 19019G24KT M03/M08 A3023 RMK A01 T10281075  RH  070%=      5-min Rain = 0
KPD4 141612Z 19020KT M03/M08 A3023 RMK A01 T10281075  RH  070%=      5-min Rain = 0
KPD4 141613Z 19017G23KT M03/M07 A3023 RMK A01 T10271074  RH  070%=      5-min Rain = 0
KPD4 141614Z 19022KT M03/M07 A3023 RMK A01 T10261073  RH  070%=      5-min Rain = 0
KPD4 141615Z 19020KT M03/M07 A3023 RMK A01 T10261073  RH  070%=      5-min Rain = 0
KPD4 141616Z 19019KT M03/M07 A3023 RMK A01 T10261072  RH  070%=      5-min Rain = 0
KPD4 141617Z 19021KT M03/M07 A3023 RMK A01 T10251071  RH  070%=      5-min Rain = 0
KPD4 141618Z 18024KT M03/M07 A3022 RMK A01 T10251072  RH  070%=      5-min Rain = 0
KPD4 141619Z 19022KT M03/M07 A3022 RMK A01 T10251072  RH  070%=      5-min Rain = 0
KPD4 141620Z 19020KT M03/M07 A3022 RMK A01 T10251071  RH  071%=      5-min Rain = 0
KPD4 141621Z 19021G26KT M03/M07 A3022 RMK A01 T10251070  RH  071%=      5-min Rain = 0
KPD4 141622Z 19021KT M03/M07 A3022 RMK A01 T10251070  RH  071%=      5-min Rain = 0
KPD4 141623Z 19021KT M02/M07 A3022 RMK A01 T10241069  RH  071%=      5-min Rain = 0
KPD4 141624Z 20020KT M02/M07 A3022 RMK A01 T10241069  RH  071%=      5-min Rain = 0
KPD4 141625Z 20020KT M02/M07 A3022 RMK A01 T10231067  RH  072%=      5-min Rain = 0
KPD4 141626Z 19022G30KT M02/M07 A3022 RMK A01 T10221067  RH  071%=      5-min Rain = 0
KPD4 141627Z 19023KT M02/M07 A3022 RMK A01 T10221067  RH  071%=      5-min Rain = 0
KPD4 141628Z 19022KT M02/M07 A3022 RMK A01 T10221067  RH  072%=      5-min Rain = 0
KPD4 141629Z 19024KT M02/M07 A3022 RMK A01 T10231066  RH  072%=      5-min Rain = 0
KPD4 141630Z 19024KT M02/M07 A3022 RMK A01 T10221066  RH  072%=      5-min Rain = 0
KPD4 141631Z 19019KT M02/M07 A3022 RMK A01 T10231066  RH  072%=      5-min Rain = 0
KPD4 141632Z 19022KT M02/M07 A3022 RMK A01 T10221066  RH  072%=      5-min Rain = 0
KPD4 141633Z 20020KT M02/M07 A3022 RMK A01 T10221066  RH  072%=      5-min Rain = 0
KPD4 141634Z 19020G26KT M02/M07 A3022 RMK A01 T10221065  RH  072%=      5-min Rain = 0
KPD4 141635Z 19020KT M02/M07 A3022 RMK A01 T10221065  RH  072%=      5-min Rain = 0
KPD4 141636Z 19018G24KT M02/M07 A3022 RMK A01 T10221065  RH  072%=      5-min Rain = 0
KPD4 141637Z 20022KT M02/M06 A3022 RMK A01 T10211064  RH  072%=      5-min Rain = 0
KPD4 141638Z 19020KT M02/M07 A3022 RMK A01 T10211065  RH  072%=      5-min Rain = 0
KPD4 141639Z 19020KT M02/M06 A3022 RMK A01 T10211064  RH  072%=      5-min Rain = 0
KPD4 141640Z 20017G22KT M02/M06 A3022 RMK A01 T10211064  RH  072%=      5-min Rain = 0
KPD4 141641Z 20022KT M02/M06 A3022 RMK A01 T10201063  RH  072%=      5-min Rain = 0
KPD4 141642Z 20020KT M02/M06 A3022 RMK A01 T10201064  RH  072%=      5-min Rain = 0
KPD4 141643Z 20017KT M02/M06 A3022 RMK A01 T10201064  RH  072%=      5-min Rain = 0
KPD4 141644Z 19020KT M02/M06 A3022 RMK A01 T10191062  RH  072%=      5-min Rain = 0
KPD4 141645Z 20020G25KT M02/M06 A3022 RMK A01 T10191063  RH  072%=      5-min Rain = 0
KPD4 141646Z 20019KT M02/M06 A3022 RMK A01 T10191063  RH  072%=      5-min Rain = 0
KPD4 141647Z 19018KT M02/M06 A3022 RMK A01 T10191063  RH  072%=      5-min Rain = 0
KPD4 141648Z 20020G25KT M02/M06 A3022 RMK A01 T10181062  RH  072%=      5-min Rain = 0
KPD4 141649Z 20017KT M02/M06 A3022 RMK A01 T10181062  RH  072%=      5-min Rain = 0
KPD4 141650Z 19020KT M02/M06 A3022 RMK A01 T10181062  RH  072%=      5-min Rain = 0
KPD4 141651Z 19023KT M02/M06 A3022 RMK A01 T10181063  RH  072%=      5-min Rain = 0
KPD4 141652Z 19021KT M02/M06 A3022 RMK A01 T10191063  RH  072%=      5-min Rain = 0
KPD4 141653Z 19021KT M02/M06 A3022 RMK A01 T10191062  RH  072%=      5-min Rain = 0
KPD4 141654Z 19018KT M02/M06 A3022 RMK A01 T10191062  RH  072%=      5-min Rain = 0
KPD4 141655Z 20017KT M02/M06 A3022 RMK A01 T10181061  RH  072%=      5-min Rain = 0
KPD4 141656Z 19021KT M02/M06 A3022 RMK A01 T10161060  RH  072%=      5-min Rain = 0
KPD4 141657Z 19018G23KT M02/M06 A3022 RMK A01 T10161061  RH  071%=      5-min Rain = 0
KPD4 141658Z 20023KT M02/M06 A3022 RMK A01 T10161061  RH  071%=      5-min Rain = 0
KPD4 141659Z 20018G23KT M02/M06 A3022 RMK A01 T10171061  RH  072%=      5-min Rain = 0
KPD4 141700Z 19018G23KT M02/M06 A3022 RMK A01 T10161060  RH  072%=      5-min Rain = 0
KPD4 141701Z 19022KT M02/M06 A3022 RMK A01 T10151060  RH  071%=      5-min Rain = 0
KPD4 141702Z 19020G27KT M02/M06 A3022 RMK A01 T10161061  RH  071%=      5-min Rain = 0
KPD4 141703Z 19023KT M02/M06 A3022 RMK A01 T10161061  RH  072%=      5-min Rain = 0
KPD4 141704Z 20023KT M02/M06 A3021 RMK A01 T10161061  RH  072%=      5-min Rain = 0
KPD4 141705Z 20020KT M02/M06 A3022 RMK A01 T10171061  RH  072%=      5-min Rain = 0
KPD4 141706Z 20019G28KT M02/M06 A3022 RMK A01 T10161060  RH  072%=      5-min Rain = 0
KPD4 141707Z 20022KT M02/M06 A3021 RMK A01 T10151060  RH  072%=      5-min Rain = 0
KPD4 141708Z 20021KT M02/M06 A3022 RMK A01 T10161060  RH  072%=      5-min Rain = 0
KPD4 141709Z 21021KT M02/M06 A3021 RMK A01 T10151059  RH  072%=      5-min Rain = 0
KPD4 141710Z 19017KT M02/M06 A3022 RMK A01 T10151059  RH  072%=      5-min Rain = 0
KPD4 141711Z 19018G24KT M01/M06 A3022 RMK A01 T10131058  RH  072%=      5-min Rain = 0
KPD4 141712Z 19021G26KT M01/M06 A3021 RMK A01 T10131059  RH  071%=      5-min Rain = 0
KPD4 141713Z 19022KT M01/M06 A3021 RMK A01 T10131059  RH  071%=      5-min Rain = 0
KPD4 141714Z 19021G27KT M01/M06 A3021 RMK A01 T10131059  RH  071%=      5-min Rain = 0
KPD4 141715Z 20019KT M01/M06 A3021 RMK A01 T10131059  RH  071%=      5-min Rain = 0
KPD4 141716Z 19020G25KT M01/M06 A3021 RMK A01 T10131059  RH  071%=      5-min Rain = 0
KPD4 141717Z 18021KT M01/M06 A3021 RMK A01 T10131060  RH  071%=      5-min Rain = 0
KPD4 141718Z 19023KT M01/M06 A3021 RMK A01 T10131059  RH  071%=      5-min Rain = 0
KPD4 141719Z 19022G27KT M01/M06 A3021 RMK A01 T10131059  RH  071%=      5-min Rain = 0
KPD4 141720Z 19022KT M01/M06 A3021 RMK A01 T10131059  RH  071%=      5-min Rain = 0
KPD4 141721Z 20019KT M01/M06 A3021 RMK A01 T10131059  RH  071%=      5-min Rain = 0
KPD4 141722Z 20018KT M01/M06 A3021 RMK A01 T10121058  RH  071%=      5-min Rain = 0
KPD4 141723Z 20016KT M01/M06 A3021 RMK A01 T10111057  RH  071%=      5-min Rain = 0
KPD4 141724Z 19021KT M01/M06 A3021 RMK A01 T10091057  RH  070%=      5-min Rain = 0
KPD4 141725Z 19021KT M01/M06 A3021 RMK A01 T10101058  RH  070%=      5-min Rain = 0
KPD4 141726Z 19021KT M01/M06 A3021 RMK A01 T10111058  RH  070%=      5-min Rain = 0
KPD4 141727Z 19024G29KT M01/M06 A302 RMK A01 T10101058  RH  070%=      5-min Rain = 0
KPD4 141728Z 19019KT M01/M06 A3021 RMK A01 T10111058  RH  070%=      5-min Rain = 0
KPD4 141729Z 19015KT M01/M06 A3021 RMK A01 T10111057  RH  070%=      5-min Rain = 0
KPD4 141730Z 19016KT M01/M06 A302 RMK A01 T10091055  RH  071%=      5-min Rain = 0
KPD4 141731Z 19020KT M01/M06 A302 RMK A01 T10081056  RH  070%=      5-min Rain = 0
KPD4 141732Z 19018KT M01/M06 A302 RMK A01 T10081057  RH  069%=      5-min Rain = 0
KPD4 141733Z 19021KT M01/M06 A302 RMK A01 T10081057  RH  069%=      5-min Rain = 0
KPD4 141734Z 19022KT M01/M06 A302 RMK A01 T10081057  RH  069%=      5-min Rain = 0
KPD4 141735Z 19021KT M01/M06 A302 RMK A01 T10091058  RH  070%=      5-min Rain = 0
KPD4 141736Z 18019G24KT M01/M06 A302 RMK A01 T10091057  RH  070%=      5-min Rain = 0
KPD4 141737Z 19020KT M01/M06 A302 RMK A01 T10081055  RH  070%=      5-min Rain = 0
KPD4 141738Z 19019G25KT M01/M06 A302 RMK A01 T10071055  RH  070%=      5-min Rain = 0
KPD4 141739Z 19022KT M01/M06 A302 RMK A01 T10061055  RH  070%=      5-min Rain = 0
KPD4 141740Z 19024KT M01/M06 A302 RMK A01 T10061056  RH  069%=      5-min Rain = 0
KPD4 141741Z 19022G27KT M01/M06 A302 RMK A01 T10081056  RH  070%=      5-min Rain = 0
KPD4 141742Z 19022G27KT M01/M06 A3019 RMK A01 T10081055  RH  070%=      5-min Rain = 0
KPD4 141743Z 19022KT M01/M06 A302 RMK A01 T10081055  RH  070%=      5-min Rain = 0
KPD4 141744Z 19021KT M01/M06 A3019 RMK A01 T10071055  RH  070%=      5-min Rain = 0
KPD4 141745Z 19020KT M01/M05 A3019 RMK A01 T10061053  RH  070%=      5-min Rain = 0
KPD4 141746Z 19024KT M00/M05 A3019 RMK A01 T10041053  RH  070%=      5-min Rain = 0
KPD4 141747Z 20020G25KT M01/M06 A3019 RMK A01 T10061055  RH  070%=      5-min Rain = 0
KPD4 141748Z 19020KT M01/M05 A3019 RMK A01 T10061053  RH  070%=      5-min Rain = 0
KPD4 141749Z 19019KT M01/M05 A3019 RMK A01 T10051052  RH  070%=      5-min Rain = 0
KPD4 141750Z 20021KT M00/M05 A3019 RMK A01 T10041053  RH  070%=      5-min Rain = 0
KPD4 141751Z 19019KT M00/M05 A3019 RMK A01 T10041053  RH  070%=      5-min Rain = 0
KPD4 141752Z 19014G20KT M00/M05 A3019 RMK A01 T10021051  RH  070%=      5-min Rain = 0
KPD4 141753Z 19017KT 00/M05 A3019 RMK A01 T00011049  RH  069%=      5-min Rain = 0
KPD4 141754Z 19019KT 00/M05 A3019 RMK A01 T00011050  RH  068%=      5-min Rain = 0
KPD4 141755Z 18021KT 00/M05 A3019 RMK A01 T00011051  RH  068%=      5-min Rain = 0
KPD4 141756Z 18020G26KT 00/05 A3019 RMK A01 T00000-52  RH  068%=      5-min Rain = 0
KPD4 141757Z 19020KT 00/05 A3019 RMK A01 T00-00-52  RH  068%=      5-min Rain = 0
KPD4 141758Z 19019KT 00/05 A3019 RMK A01 T00000-51  RH  068%=      5-min Rain = 0
KPD4 141759Z 19019G25KT 00/M05 A3018 RMK A01 T00011050  RH  068%=      5-min Rain = 0
KPD4 141800Z 19020KT 00/M05 A3018 RMK A01 T00021050  RH  068%=      5-min Rain = 0
KPD4 141801Z 20019KT 00/M05 A3018 RMK A01 T00021050  RH  068%=      5-min Rain = 0
KPD4 141802Z 19017KT 00/M05 A3018 RMK A01 T00031050  RH  068%=      5-min Rain = 0
KPD4 141803Z 19018KT 00/M05 A3018 RMK A01 T00041049  RH  068%=      5-min Rain = 0
KPD4 141804Z 19021KT 00/M05 A3018 RMK A01 T00041050  RH  067%=      5-min Rain = 0
KPD4 141805Z 19022KT 00/M05 A3018 RMK A01 T00041050  RH  067%=      5-min Rain = 0
KPD4 141806Z 19018KT 00/M05 A3018 RMK A01 T00031049  RH  068%=      5-min Rain = 0
KPD4 141807Z 18019KT 00/M05 A3018 RMK A01 T00041048  RH  068%=      5-min Rain = 0
KPD4 141808Z 19021KT 01/M05 A3018 RMK A01 T00051048  RH  068%=      5-min Rain = 0
KPD4 141809Z 19022KT 00/M05 A3018 RMK A01 T00041049  RH  067%=      5-min Rain = 0
KPD4 141810Z 19021KT 00/M05 A3017 RMK A01 T00031050  RH  067%=      5-min Rain = 0
KPD4 141811Z 19022KT 00/M05 A3017 RMK A01 T00031049  RH  068%=      5-min Rain = 0
KPD4 141812Z 19020KT 00/M05 A3017 RMK A01 T00031049  RH  068%=      5-min Rain = 0
KPD4 141813Z 19019KT 00/M05 A3017 RMK A01 T00041049  RH  068%=      5-min Rain = 0
KPD4 141814Z 19017G22KT 01/M05 A3017 RMK A01 T00051047  RH  068%=      5-min Rain = 0
KPD4 141815Z 20020G26KT 01/M05 A3017 RMK A01 T00081045  RH  068%=      5-min Rain = 0
KPD4 141816Z 19019KT 01/M05 A3017 RMK A01 T00081047  RH  067%=      5-min Rain = 0
KPD4 141817Z 19017KT 01/M05 A3017 RMK A01 T00071047  RH  067%=      5-min Rain = 0
KPD4 141818Z 19018G23KT 01/M05 A3017 RMK A01 T00081046  RH  067%=      5-min Rain = 0
KPD4 141819Z 19019KT 01/M05 A3017 RMK A01 T00091047  RH  066%=      5-min Rain = 0
KPD4 141820Z 19022G28KT 01/M05 A3017 RMK A01 T00081047  RH  066%=      5-min Rain = 0
KPD4 141821Z 19016G22KT 01/M05 A3017 RMK A01 T00071048  RH  067%=      5-min Rain = 0
KPD4 141822Z 19020G26KT 01/M05 A3017 RMK A01 T00091045  RH  068%=      5-min Rain = 0
KPD4 141823Z 19022KT 01/M05 A3016 RMK A01 T00101046  RH  066%=      5-min Rain = 0
KPD4 141824Z 18021KT 01/M05 A3016 RMK A01 T00091046  RH  067%=      5-min Rain = 0
KPD4 141825Z 18021KT 01/M05 A3016 RMK A01 T00081046  RH  067%=      5-min Rain = 0
KPD4 141826Z 19018KT 01/M05 A3016 RMK A01 T00091045  RH  067%=      5-min Rain = 0
KPD4 141827Z 19022G27KT 01/M04 A3016 RMK A01 T00111044  RH  067%=      5-min Rain = 0
KPD4 141828Z 19023KT 01/M05 A3016 RMK A01 T00101045  RH  067%=      5-min Rain = 0
KPD4 141829Z 19021KT 01/M04 A3016 RMK A01 T00091044  RH  067%=      5-min Rain = 0
KPD4 141830Z 19021KT 01/M04 A3016 RMK A01 T00091044  RH  068%=      5-min Rain = 0
KPD4 141831Z 19023KT 01/M04 A3016 RMK A01 T00101043  RH  068%=      5-min Rain = 0
KPD4 141832Z 19023KT 01/M04 A3016 RMK A01 T00101043  RH  068%=      5-min Rain = 0
KPD4 141833Z 19019KT 01/M04 A3016 RMK A01 T00101043  RH  068%=      5-min Rain = 0
KPD4 141834Z 19018KT 01/M04 A3016 RMK A01 T00111043  RH  068%=      5-min Rain = 0
KPD4 141835Z 19021G26KT 01/M04 A3016 RMK A01 T00111043  RH  067%=      5-min Rain = 0
KPD4 141836Z 19019G25KT 01/M04 A3016 RMK A01 T00111043  RH  067%=      5-min Rain = 0
KPD4 141837Z 19018G23KT 01/M04 A3016 RMK A01 T00121041  RH  068%=      5-min Rain = 0
KPD4 141838Z 20020KT 01/M04 A3015 RMK A01 T00131041  RH  067%=      5-min Rain = 0
KPD4 141839Z 19017KT 01/M04 A3015 RMK A01 T00131041  RH  067%=      5-min Rain = 0
KPD4 141840Z 20017KT 01/M04 A3015 RMK A01 T00141039  RH  068%=      5-min Rain = 0
KPD4 141841Z 19021KT 02/M04 A3015 RMK A01 T00151039  RH  067%=      5-min Rain = 0
KPD4 141842Z 19020KT 02/M04 A3015 RMK A01 T00151039  RH  067%=      5-min Rain = 0
KPD4 141843Z 19020KT 01/M04 A3015 RMK A01 T00141039  RH  068%=      5-min Rain = 0
KPD4 141844Z 20021KT 02/M04 A3015 RMK A01 T00151038  RH  068%=      5-min Rain = 0
KPD4 141845Z 20020G25KT 02/M04 A3015 RMK A01 T00151037  RH  068%=      5-min Rain = 0
KPD4 141846Z 20017G22KT 02/M04 A3015 RMK A01 T00151036  RH  068%=      5-min Rain = 0
KPD4 141847Z 20019G24KT 02/M04 A3015 RMK A01 T00171035  RH  068%=      5-min Rain = 0
KPD4 141848Z 20018KT 02/M04 A3015 RMK A01 T00171036  RH  068%=      5-min Rain = 0
KPD4 141849Z 19018KT 02/M04 A3015 RMK A01 T00181035  RH  068%=      5-min Rain = 0
KPD4 141850Z 19021KT 02/M03 A3015 RMK A01 T00191034  RH  068%=      5-min Rain = 0
KPD4 141851Z 19021KT 02/M03 A3014 RMK A01 T00191034  RH  068%=      5-min Rain = 0
KPD4 141852Z 19019G24KT 02/M03 A3014 RMK A01 T00191034  RH  068%=      5-min Rain = 0
KPD4 141853Z 18023KT 02/M03 A3014 RMK A01 T00191033  RH  068%=      5-min Rain = 0
KPD4 141854Z 19021G26KT 02/M03 A3014 RMK A01 T00191033  RH  068%=      5-min Rain = 0
KPD4 141855Z 19020KT 02/M03 A3014 RMK A01 T00191033  RH  068%=      5-min Rain = 0
KPD4 141856Z 20018KT 02/M03 A3014 RMK A01 T00201033  RH  068%=      5-min Rain = 0
KPD4 141857Z 20014KT 02/M03 A3014 RMK A01 T00211031  RH  068%=      5-min Rain = 0
KPD4 141858Z 20016G21KT 03/M03 A3014 RMK A01 T00251029  RH  068%=      5-min Rain = 0
KPD4 141859Z 19021KT 03/M03 A3014 RMK A01 T00261031  RH  066%=      5-min Rain = 0
KPD4 141900Z 19018KT 02/M03 A3014 RMK A01 T00221033  RH  067%=      5-min Rain = 0
KPD4 141901Z 19019KT 02/M03 A3014 RMK A01 T00221032  RH  068%=      5-min Rain = 0
KPD4 141902Z 21022KT 02/M03 A3014 RMK A01 T00231030  RH  068%=      5-min Rain = 0
KPD4 141903Z 20020KT 02/M03 A3013 RMK A01 T00221031  RH  068%=      5-min Rain = 0
KPD4 141904Z 21020KT 02/M03 A3013 RMK A01 T00221030  RH  068%=      5-min Rain = 0
KPD4 141905Z 20016G23KT 02/M03 A3013 RMK A01 T00231030  RH  068%=      5-min Rain = 0
KPD4 141906Z 19019KT 03/M03 A3014 RMK A01 T00251029  RH  068%=      5-min Rain = 0
KPD4 141907Z 19021KT 03/M03 A3013 RMK A01 T00251030  RH  067%=      5-min Rain = 0
KPD4 141908Z 19020KT 02/M03 A3013 RMK A01 T00241030  RH  068%=      5-min Rain = 0
KPD4 141909Z 20019G25KT 02/M03 A3013 RMK A01 T00241030  RH  068%=      5-min Rain = 0
KPD4 141910Z 20020G26KT 02/M03 A3013 RMK A01 T00231030  RH  068%=      5-min Rain = 0
KPD4 141911Z 19023KT 02/M03 A3013 RMK A01 T00231030  RH  068%=      5-min Rain = 0
KPD4 141912Z 19022KT 02/M03 A3013 RMK A01 T00231029  RH  068%=      5-min Rain = 0
KPD4 141913Z 19023KT 02/M03 A3013 RMK A01 T00231029  RH  069%=      5-min Rain = 0
KPD4 141914Z 19024KT 02/M03 A3013 RMK A01 T00231029  RH  068%=      5-min Rain = 0
KPD4 141915Z 19023G28KT 02/M03 A3013 RMK A01 T00221030  RH  068%=      5-min Rain = 0
KPD4 141916Z 19022KT 02/M03 A3013 RMK A01 T00221029  RH  069%=      5-min Rain = 0
KPD4 141917Z 20021G26KT 02/M03 A3013 RMK A01 T00231029  RH  069%=      5-min Rain = 0
KPD4 141918Z 21019KT 02/M03 A3013 RMK A01 T00231029  RH  069%=      5-min Rain = 0
KPD4 141919Z 20017KT 02/M03 A3013 RMK A01 T00241027  RH  069%=      5-min Rain = 0
KPD4 141920Z 20020KT 03/M03 A3013 RMK A01 T00261027  RH  068%=      5-min Rain = 0
KPD4 141921Z 19020KT 03/M03 A3013 RMK A01 T00261027  RH  068%=      5-min Rain = 0
KPD4 141922Z 20018KT 03/M03 A3012 RMK A01 T00261028  RH  068%=      5-min Rain = 0
KPD4 141923Z 21018KT 03/M03 A3012 RMK A01 T00261027  RH  068%=      5-min Rain = 0
KPD4 141924Z 20016G22KT 03/M03 A3012 RMK A01 T00261027  RH  068%=      5-min Rain = 0
KPD4 141925Z 19019KT 03/M03 A3012 RMK A01 T00281025  RH  068%=      5-min Rain = 0
KPD4 141926Z 20021KT 03/M03 A3012 RMK A01 T00291027  RH  067%=      5-min Rain = 0
KPD4 141927Z 19021KT 03/M03 A3012 RMK A01 T00271029  RH  067%=      5-min Rain = 0
KPD4 141928Z 19020KT 03/M03 A3012 RMK A01 T00251029  RH  068%=      5-min Rain = 0
KPD4 141929Z 20016G21KT 03/M03 A3012 RMK A01 T00261026  RH  068%=      5-min Rain = 0
KPD4 141930Z 20018KT 03/M03 A3012 RMK A01 T00281026  RH  067%=      5-min Rain = 0
KPD4 141931Z 19023KT 03/M03 A3011 RMK A01 T00281027  RH  067%=      5-min Rain = 0
KPD4 141932Z 20021G26KT 03/M03 A3011 RMK A01 T00271028  RH  067%=      5-min Rain = 0
KPD4 141933Z 19021KT 03/M03 A3011 RMK A01 T00271027  RH  068%=      5-min Rain = 0
KPD4 141934Z 19021KT 03/M03 A3011 RMK A01 T00271027  RH  068%=      5-min Rain = 0
KPD4 141935Z 20021KT 03/M03 A3011 RMK A01 T00281026  RH  068%=      5-min Rain = 0
KPD4 141936Z 21024KT 03/M03 A3011 RMK A01 T00281027  RH  068%=      5-min Rain = 0
KPD4 141937Z 20019G25KT 03/M03 A3011 RMK A01 T00261028  RH  068%=      5-min Rain = 0
KPD4 141938Z 19022G27KT 03/M03 A3011 RMK A01 T00251026  RH  069%=      5-min Rain = 0
KPD4 141939Z 20020KT 03/M03 A3011 RMK A01 T00271026  RH  068%=      5-min Rain = 0
KPD4 141940Z 20015KT 03/M02 A3011 RMK A01 T00291024  RH  068%=      5-min Rain = 0
KPD4 141941Z 20015KT 03/M02 A3011 RMK A01 T00321023  RH  067%=      5-min Rain = 0
KPD4 141942Z 20019G24KT 03/M02 A3011 RMK A01 T00331023  RH  067%=      5-min Rain = 0
KPD4 141943Z 19021KT 03/M02 A301 RMK A01 T00341024  RH  066%=      5-min Rain = 0
KPD4 141944Z 20022KT 03/M03 A301 RMK A01 T00311026  RH  066%=      5-min Rain = 0
KPD4 141945Z 21022G28KT 03/M03 A301 RMK A01 T00301025  RH  067%=      5-min Rain = 0
KPD4 141946Z 21020G25KT 03/M02 A301 RMK A01 T00311024  RH  067%=      5-min Rain = 0
KPD4 141947Z 21022KT 03/M02 A301 RMK A01 T00321024  RH  067%=      5-min Rain = 0
KPD4 141948Z 19021KT 03/M02 A301 RMK A01 T00311024  RH  067%=      5-min Rain = 0
KPD4 141949Z 20019KT 03/M02 A301 RMK A01 T00321023  RH  067%=      5-min Rain = 0
KPD4 141950Z 20020KT 03/M02 A301 RMK A01 T00331023  RH  067%=      5-min Rain = 0
KPD4 141951Z 20019KT 03/M02 A301 RMK A01 T00341023  RH  067%=      5-min Rain = 0
KPD4 141952Z 19020KT 04/M02 A301 RMK A01 T00351022  RH  066%=      5-min Rain = 0
KPD4 141953Z 19021KT 04/M02 A301 RMK A01 T00361022  RH  066%=      5-min Rain = 0
KPD4 141954Z 20021KT 04/M02 A301 RMK A01 T00351023  RH  066%=      5-min Rain = 0
KPD4 141955Z 21021G26KT 03/M02 A301 RMK A01 T00341022  RH  066%=      5-min Rain = 0
KPD4 141956Z 21023KT 03/M02 A301 RMK A01 T00341022  RH  066%=      5-min Rain = 0
KPD4 141957Z 19021KT 03/M02 A301 RMK A01 T00341023  RH  066%=      5-min Rain = 0
KPD4 141958Z 19023G28KT 03/M02 A301 RMK A01 T00341022  RH  067%=      5-min Rain = 0
KPD4 141959Z 19021KT 03/M02 A3009 RMK A01 T00341022  RH  067%=      5-min Rain = 0
KPD4 142000Z 19020KT 04/M02 A3009 RMK A01 T00351022  RH  066%=      5-min Rain = 0
KPD4 142001Z 19017KT 04/M02 A3009 RMK A01 T00361020  RH  067%=      5-min Rain = 0
KPD4 142002Z 20019G24KT 04/M02 A3009 RMK A01 T00381019  RH  066%=      5-min Rain = 0
KPD4 142003Z 20017KT 04/M02 A3009 RMK A01 T00391020  RH  065%=      5-min Rain = 0
KPD4 142004Z 19022G27KT 04/M02 A3009 RMK A01 T00411018  RH  065%=      5-min Rain = 0
KPD4 142005Z 19020KT 04/M02 A3009 RMK A01 T00421019  RH  064%=      5-min Rain = 0
KPD4 142006Z 20019G24KT 04/M02 A3009 RMK A01 T00431019  RH  064%=      5-min Rain = 0
KPD4 142007Z 20019KT 04/M02 A3009 RMK A01 T00411022  RH  064%=      5-min Rain = 0
KPD4 142008Z 20021KT 04/M02 A3009 RMK A01 T00381023  RH  064%=      5-min Rain = 0
KPD4 142009Z 19021G27KT 04/M02 A3009 RMK A01 T00381021  RH  065%=      5-min Rain = 0
KPD4 142010Z 19023KT 04/M02 A3008 RMK A01 T00391020  RH  065%=      5-min Rain = 0
KPD4 142011Z 19023KT 04/M02 A3008 RMK A01 T00391021  RH  065%=      5-min Rain = 0
KPD4 142012Z 19024KT 04/M02 A3008 RMK A01 T00391021  RH  065%=      5-min Rain = 0
KPD4 142013Z 19021KT 04/M02 A3008 RMK A01 T00381021  RH  065%=      5-min Rain = 0
KPD4 142014Z 20018G23KT 04/M02 A3008 RMK A01 T00401019  RH  065%=      5-min Rain = 0
KPD4 142015Z 21018G23KT 04/M02 A3008 RMK A01 T00431017  RH  065%=      5-min Rain = 0
KPD4 142016Z 21016KT 05/M02 A3008 RMK A01 T00461018  RH  063%=      5-min Rain = 0
KPD4 142017Z 20016KT 05/M02 A3008 RMK A01 T00471017  RH  063%=      5-min Rain = 0
KPD4 142018Z 19018KT 05/M02 A3008 RMK A01 T00481016  RH  063%=      5-min Rain = 0
KPD4 142019Z 19024G30KT 05/M02 A3007 RMK A01 T00511016  RH  062%=      5-min Rain = 0
KPD4 142020Z 20023KT 05/M02 A3007 RMK A01 T00491019  RH  061%=      5-min Rain = 0
KPD4 142021Z 19023KT 05/M02 A3007 RMK A01 T00471020  RH  062%=      5-min Rain = 0
KPD4 142022Z 21019KT 05/M02 A3007 RMK A01 T00451021  RH  062%=      5-min Rain = 0
KPD4 142023Z 20018KT 04/M02 A3007 RMK A01 T00441020  RH  063%=      5-min Rain = 0
KPD4 142024Z 19022KT 05/M02 A3007 RMK A01 T00461018  RH  064%=      5-min Rain = 0
KPD4 142025Z 19019KT 05/M02 A3007 RMK A01 T00451019  RH  063%=      5-min Rain = 0
KPD4 142026Z 19022KT 05/M01 A3007 RMK A01 T00491014  RH  064%=      5-min Rain = 0
KPD4 142027Z 20019KT 05/M01 A3007 RMK A01 T00541013  RH  062%=      5-min Rain = 0
KPD4 142028Z 20018KT 06/M01 A3007 RMK A01 T00561014  RH  061%=      5-min Rain = 0
KPD4 142029Z 20020KT 06/M01 A3007 RMK A01 T00581014  RH  060%=      5-min Rain = 0
KPD4 142030Z 20021KT 06/M02 A3007 RMK A01 T00571016  RH  059%=      5-min Rain = 0
KPD4 142031Z 20018G23KT 06/M02 A3007 RMK A01 T00571016  RH  060%=      5-min Rain = 0
KPD4 142032Z 20020KT 06/M02 A3007 RMK A01 T00561017  RH  059%=      5-min Rain = 0
KPD4 142033Z 20020KT 06/M02 A3006 RMK A01 T00551017  RH  060%=      5-min Rain = 0
KPD4 142034Z 20019KT 06/M02 A3007 RMK A01 T00551017  RH  060%=      5-min Rain = 0
KPD4 142035Z 20021KT 05/M02 A3006 RMK A01 T00531019  RH  060%=      5-min Rain = 0
KPD4 142036Z 20019KT 05/M02 A3006 RMK A01 T00481021  RH  061%=      5-min Rain = 0
KPD4 142037Z 20019G24KT 05/M01 A3006 RMK A01 T00501014  RH  063%=      5-min Rain = 0
KPD4 142038Z 20023KT 06/M01 A3006 RMK A01 T00561013  RH  061%=      5-min Rain = 0
KPD4 142039Z 21023KT 06/M02 A3006 RMK A01 T00551016  RH  060%=      5-min Rain = 0
KPD4 142040Z 21020G25KT 06/M02 A3006 RMK A01 T00551016  RH  060%=      5-min Rain = 0
KPD4 142041Z 19019KT 06/M02 A3006 RMK A01 T00561015  RH  060%=      5-min Rain = 0
KPD4 142042Z 19019KT 06/M02 A3006 RMK A01 T00571015  RH  060%=      5-min Rain = 0
KPD4 142043Z 19017KT 06/M02 A3006 RMK A01 T00581016  RH  059%=      5-min Rain = 0
KPD4 142044Z 18020G26KT 06/M02 A3006 RMK A01 T00561017  RH  060%=      5-min Rain = 0
KPD4 142045Z 19023KT 06/M01 A3006 RMK A01 T00571014  RH  060%=      5-min Rain = 0
KPD4 142046Z 20020KT 06/M02 A3006 RMK A01 T00571015  RH  060%=      5-min Rain = 0
KPD4 142047Z 19020KT 06/M01 A3006 RMK A01 T00591014  RH  059%=      5-min Rain = 0
KPD4 142048Z 19021KT 06/M02 A3006 RMK A01 T00591015  RH  059%=      5-min Rain = 0
KPD4 142049Z 19019G24KT 06/M02 A3006 RMK A01 T00581016  RH  059%=      5-min Rain = 0
KPD4 142050Z 18023KT 06/M02 A3006 RMK A01 T00551018  RH  059%=      5-min Rain = 0
KPD4 142051Z 19019KT 06/M02 A3006 RMK A01 T00561015  RH  060%=      5-min Rain = 0
KPD4 142052Z 19019KT 06/M01 A3006 RMK A01 T00591014  RH  059%=      5-min Rain = 0
KPD4 142053Z 19017KT 06/M02 A3006 RMK A01 T00581015  RH  059%=      5-min Rain = 0
KPD4 142054Z 19022KT 06/M01 A3005 RMK A01 T00611012  RH  059%=      5-min Rain = 0
KPD4 142055Z 19021KT 06/M02 A3005 RMK A01 T00621015  RH  058%=      5-min Rain = 0
KPD4 142056Z 19019KT 06/M02 A3005 RMK A01 T00601016  RH  058%=      5-min Rain = 0
KPD4 142057Z 19017KT 06/M02 A3005 RMK A01 T00601015  RH  059%=      5-min Rain = 0
KPD4 142058Z 19018KT 06/M01 A3005 RMK A01 T00631013  RH  058%=      5-min Rain = 0
KPD4 142059Z 19019KT 07/M01 A3005 RMK A01 T00651013  RH  057%=      5-min Rain = 0
KPD4 142100Z 19020KT 07/M02 A3005 RMK A01 T00651015  RH  057%=      5-min Rain = 0
KPD4 142101Z 20018KT 06/M02 A3005 RMK A01 T00631015  RH  057%=      5-min Rain = 0
KPD4 142102Z 18020KT 06/M02 A3005 RMK A01 T00631015  RH  057%=      5-min Rain = 0
KPD4 142103Z 19020G25KT 06/M02 A3005 RMK A01 T00621016  RH  057%=      5-min Rain = 0
KPD4 142104Z 19024KT 06/M02 A3005 RMK A01 T00611015  RH  058%=      5-min Rain = 0
KPD4 142105Z 19017KT 06/M02 A3005 RMK A01 T00611015  RH  058%=      5-min Rain = 0
KPD4 142106Z 19021G26KT 06/M01 A3005 RMK A01 T00641013  RH  058%=      5-min Rain = 0
KPD4 142107Z 19023G28KT 06/M02 A3005 RMK A01 T00631015  RH  057%=      5-min Rain = 0
KPD4 142108Z 19020KT 06/M02 A3005 RMK A01 T00621016  RH  058%=      5-min Rain = 0
KPD4 142109Z 19022KT 06/M01 A3005 RMK A01 T00631014  RH  058%=      5-min Rain = 0
KPD4 142110Z 19022G28KT 06/M01 A3005 RMK A01 T00641014  RH  057%=      5-min Rain = 0
KPD4 142111Z 19020KT 06/M01 A3005 RMK A01 T00631014  RH  058%=      5-min Rain = 0
KPD4 142112Z 19022KT 06/M01 A3005 RMK A01 T00631014  RH  058%=      5-min Rain = 0
KPD4 142113Z 19020KT 06/M01 A3005 RMK A01 T00641014  RH  058%=      5-min Rain = 0
KPD4 142114Z 19018KT 06/M01 A3005 RMK A01 T00641013  RH  058%=      5-min Rain = 0
KPD4 142115Z 19023G29KT 07/M01 A3004 RMK A01 T00671012  RH  057%=      5-min Rain = 0
KPD4 142116Z 20019KT 07/M01 A3005 RMK A01 T00651014  RH  057%=      5-min Rain = 0
KPD4 142117Z 19019KT 07/M01 A3004 RMK A01 T00651013  RH  058%=      5-min Rain = 0
KPD4 142118Z 19020KT 07/M01 A3004 RMK A01 T00651014  RH  057%=      5-min Rain = 0
KPD4 142119Z 19018KT 06/M01 A3004 RMK A01 T00631014  RH  058%=      5-min Rain = 0
KPD4 142120Z 20020KT 07/M01 A3004 RMK A01 T00651013  RH  058%=      5-min Rain = 0
KPD4 142121Z 19022KT 07/M01 A3004 RMK A01 T00661013  RH  057%=      5-min Rain = 0
KPD4 142122Z 18019KT 07/M02 A3004 RMK A01 T00651015  RH  057%=      5-min Rain = 0
KPD4 142123Z 19022KT 06/M02 A3004 RMK A01 T00641015  RH  057%=      5-min Rain = 0
KPD4 142124Z 18021KT 06/M02 A3004 RMK A01 T00631015  RH  057%=      5-min Rain = 0
KPD4 142125Z 19020KT 06/M01 A3004 RMK A01 T00641014  RH  057%=      5-min Rain = 0
KPD4 142126Z 18016G21KT 06/M02 A3004 RMK A01 T00621015  RH  058%=      5-min Rain = 0
KPD4 142127Z 18023KT 06/M01 A3004 RMK A01 T00641014  RH  057%=      5-min Rain = 0
KPD4 142128Z 19022G27KT 06/M02 A3004 RMK A01 T00631015  RH  057%=      5-min Rain = 0
KPD4 142129Z 19023KT 06/M02 A3004 RMK A01 T00621015  RH  058%=      5-min Rain = 0
KPD4 142130Z 19022KT 06/M02 A3004 RMK A01 T00611015  RH  058%=      5-min Rain = 0
KPD4 142131Z 19022KT 06/M02 A3004 RMK A01 T00591016  RH  059%=      5-min Rain = 0
KPD4 142132Z 19023KT 06/M02 A3003 RMK A01 T00581016  RH  059%=      5-min Rain = 0
KPD4 142133Z 18021KT 06/M02 A3003 RMK A01 T00561016  RH  060%=      5-min Rain = 0
KPD4 142134Z 19023KT 06/M02 A3003 RMK A01 T00561016  RH  060%=      5-min Rain = 0
KPD4 142135Z 19024KT 06/M02 A3003 RMK A01 T00571015  RH  060%=      5-min Rain = 0
KPD4 142136Z 20022KT 06/M02 A3003 RMK A01 T00581015  RH  060%=      5-min Rain = 0
KPD4 142137Z 20020G25KT 06/M02 A3003 RMK A01 T00571016  RH  060%=      5-min Rain = 0
KPD4 142138Z 19020KT 06/M02 A3003 RMK A01 T00561016  RH  060%=      5-min Rain = 0
KPD4 142139Z 19023G28KT 06/M02 A3003 RMK A01 T00561015  RH  060%=      5-min Rain = 0
KPD4 142140Z 19024KT 06/M02 A3003 RMK A01 T00561016  RH  060%=      5-min Rain = 0
KPD4 142141Z 20022KT 05/M02 A3004 RMK A01 T00531017  RH  061%=      5-min Rain = 0
KPD4 142142Z 19021KT 05/M02 A3004 RMK A01 T00531016  RH  061%=      5-min Rain = 0
KPD4 142143Z 19019KT 05/M02 A3003 RMK A01 T00541016  RH  061%=      5-min Rain = 0
KPD4 142144Z 20019KT 05/M02 A3004 RMK A01 T00531016  RH  061%=      5-min Rain = 0
KPD4 142145Z 19016KT 05/M02 A3003 RMK A01 T00531016  RH  061%=      5-min Rain = 0
KPD4 142146Z 19020G26KT 05/M02 A3003 RMK A01 T00531016  RH  061%=      5-min Rain = 0
KPD4 142147Z 19020G25KT 05/M02 A3003 RMK A01 T00511016  RH  062%=      5-min Rain = 0
KPD4 142148Z 19018KT 05/M02 A3003 RMK A01 T00511015  RH  062%=      5-min Rain = 0
KPD4 142149Z 19020KT 05/M02 A3003 RMK A01 T00521015  RH  062%=      5-min Rain = 0
KPD4 142150Z 19018KT 06/M01 A3003 RMK A01 T00551013  RH  062%=      5-min Rain = 0
KPD4 142151Z 18020KT 06/M01 A3003 RMK A01 T00581012  RH  061%=      5-min Rain = 0
KPD4 142152Z 18021KT 06/M01 A3003 RMK A01 T00601012  RH  060%=      5-min Rain = 0
KPD4 142153Z 18019KT 06/M01 A3003 RMK A01 T00611014  RH  059%=      5-min Rain = 0
KPD4 142154Z 18020KT 06/M01 A3003 RMK A01 T00611013  RH  059%=      5-min Rain = 0
KPD4 142155Z 18018KT 06/M01 A3003 RMK A01 T00631012  RH  059%=      5-min Rain = 0
KPD4 142156Z 19019KT 07/M01 A3003 RMK A01 T00651012  RH  058%=      5-min Rain = 0
KPD4 142157Z 19024KT 07/M01 A3003 RMK A01 T00661013  RH  057%=      5-min Rain = 0
KPD4 142158Z 19021G26KT 07/M01 A3003 RMK A01 T00651014  RH  057%=      5-min Rain = 0
KPD4 142159Z 19021KT 06/M02 A3002 RMK A01 T00631015  RH  057%=      5-min Rain = 0
KPD4 142200Z 18020G25KT 06/M02 A3003 RMK A01 T00611015  RH  058%=      5-min Rain = 0
KPD4 142201Z 18025KT 06/M01 A3002 RMK A01 T00621014  RH  058%=      5-min Rain = 0
KPD4 142202Z 18022KT 06/M02 A3003 RMK A01 T00621015  RH  058%=      5-min Rain = 0
KPD4 142203Z 19024KT 06/M01 A3002 RMK A01 T00621014  RH  058%=      5-min Rain = 0
KPD4 142204Z 19024KT 06/M01 A3002 RMK A01 T00621014  RH  058%=      5-min Rain = 0
KPD4 142205Z 19022KT 06/M01 A3002 RMK A01 T00621014  RH  059%=      5-min Rain = 0
KPD4 142206Z 19019KT 06/M01 A3002 RMK A01 T00631013  RH  058%=      5-min Rain = 0
KPD4 142207Z 17019KT 06/M01 A3002 RMK A01 T00641013  RH  058%=      5-min Rain = 0
KPD4 142208Z 18019KT 06/M01 A3002 RMK A01 T00641014  RH  058%=      5-min Rain = 0
KPD4 142209Z 19020KT 06/M02 A3002 RMK A01 T00621015  RH  058%=      5-min Rain = 0
KPD4 142210Z 19022G28KT 06/M01 A3002 RMK A01 T00611014  RH  058%=      5-min Rain = 0
KPD4 142211Z 19022G27KT 06/M01 A3002 RMK A01 T00611014  RH  059%=      5-min Rain = 0
KPD4 142212Z 19023KT 06/M01 A3002 RMK A01 T00601014  RH  059%=      5-min Rain = 0
KPD4 142213Z 19022KT 06/M02 A3002 RMK A01 T00571015  RH  060%=      5-min Rain = 0
KPD4 142214Z 19018KT 06/M02 A3002 RMK A01 T00551015  RH  060%=      5-min Rain = 0
KPD4 142215Z 18017KT 06/M02 A3002 RMK A01 T00551015  RH  061%=      5-min Rain = 0
KPD4 142216Z 19018KT 06/M02 A3002 RMK A01 T00551015  RH  061%=      5-min Rain = 0
KPD4 142217Z 18020KT 05/M02 A3002 RMK A01 T00531015  RH  061%=      5-min Rain = 0
KPD4 142218Z 19021KT 05/M02 A3001 RMK A01 T00521015  RH  062%=      5-min Rain = 0
KPD4 142219Z 19019KT 05/M02 A3001 RMK A01 T00511015  RH  062%=      5-min Rain = 0
KPD4 142220Z 18019KT 05/M01 A3002 RMK A01 T00521014  RH  062%=      5-min Rain = 0
KPD4 142221Z 18018KT 05/M02 A3001 RMK A01 T00511015  RH  062%=      5-min Rain = 0
KPD4 142222Z 18017KT 05/M02 A3001 RMK A01 T00501015  RH  063%=      5-min Rain = 0
KPD4 142223Z 17017KT 05/M02 A3001 RMK A01 T00501015  RH  063%=      5-min Rain = 0
KPD4 142224Z 17020G25KT 05/M02 A3001 RMK A01 T00501015  RH  063%=      5-min Rain = 0
KPD4 142225Z 17019G24KT 05/M02 A3001 RMK A01 T00491015  RH  063%=      5-min Rain = 0
KPD4 142226Z 18017KT 05/M02 A3001 RMK A01 T00491015  RH  063%=      5-min Rain = 0
KPD4 142227Z 18019KT 05/M01 A3001 RMK A01 T00491014  RH  063%=      5-min Rain = 0
KPD4 142228Z 19022KT 05/M02 A3001 RMK A01 T00491015  RH  063%=      5-min Rain = 0
KPD4 142229Z 18021KT 05/M02 A3001 RMK A01 T00491015  RH  064%=      5-min Rain = 0
KPD4 142230Z 18018KT 05/M01 A3001 RMK A01 T00481014  RH  064%=      5-min Rain = 0
KPD4 142231Z 17019KT 05/M02 A3001 RMK A01 T00481015  RH  064%=      5-min Rain = 0
KPD4 142232Z 18020G25KT 05/M02 A3001 RMK A01 T00481015  RH  064%=      5-min Rain = 0
KPD4 142233Z 17019G25KT 05/M02 A3001 RMK A01 T00471015  RH  064%=      5-min Rain = 0
KPD4 142234Z 18022KT 05/M02 A3001 RMK A01 T00471015  RH  064%=      5-min Rain = 0
KPD4 142235Z 18022KT 05/M02 A3001 RMK A01 T00461015  RH  064%=      5-min Rain = 0
KPD4 142236Z 18017KT 05/M02 A3001 RMK A01 T00461015  RH  065%=      5-min Rain = 0
KPD4 142237Z 19018G24KT 05/M01 A3001 RMK A01 T00461014  RH  065%=      5-min Rain = 0
KPD4 142238Z 19025KT 05/M02 A3001 RMK A01 T00471015  RH  064%=      5-min Rain = 0
KPD4 142239Z 19021KT 05/M02 A3001 RMK A01 T00461015  RH  065%=      5-min Rain = 0
KPD4 142240Z 19020G26KT 05/M02 A3001 RMK A01 T00451015  RH  065%=      5-min Rain = 0
KPD4 142241Z 18018KT 05/M02 A3001 RMK A01 T00451015  RH  065%=      5-min Rain = 0
KPD4 142242Z 19022KT 05/M01 A3001 RMK A01 T00461014  RH  065%=      5-min Rain = 0
KPD4 142243Z 19020KT 05/M01 A3001 RMK A01 T00461014  RH  065%=      5-min Rain = 0
KPD4 142244Z 19021KT 05/M02 A3001 RMK A01 T00461015  RH  065%=      5-min Rain = 0
KPD4 142245Z 18020KT 05/M02 A3001 RMK A01 T00451015  RH  065%=      5-min Rain = 0
KPD4 142246Z 18021G27KT 05/M02 A3001 RMK A01 T00451015  RH  065%=      5-min Rain = 0
KPD4 142247Z 18021KT 05/M02 A30 RMK A01 T00451015  RH  065%=      5-min Rain = 0
KPD4 142248Z 18025KT 05/M02 A30 RMK A01 T00451015  RH  065%=      5-min Rain = 0
KPD4 142249Z 18022KT 05/M02 A30 RMK A01 T00451015  RH  065%=      5-min Rain = 0
KPD4 142250Z 19026KT 05/M01 A30 RMK A01 T00461014  RH  065%=      5-min Rain = 0
KPD4 142251Z 18026KT 05/M02 A30 RMK A01 T00461015  RH  065%=      5-min Rain = 0
KPD4 142252Z 18026G31KT 05/M01 A30 RMK A01 T00461014  RH  065%=      5-min Rain = 0
KPD4 142253Z 18025KT 05/M01 A30 RMK A01 T00451014  RH  065%=      5-min Rain = 0
KPD4 142254Z 19027KT 05/M01 A30 RMK A01 T00451014  RH  065%=      5-min Rain = 0
KPD4 142255Z 19022G28KT 05/M01 A30 RMK A01 T00461014  RH  065%=      5-min Rain = 0
KPD4 142256Z 19024KT 05/M01 A30 RMK A01 T00461014  RH  065%=      5-min Rain = 0
KPD4 142257Z 19025KT 05/M01 A30 RMK A01 T00461014  RH  065%=      5-min Rain = 0
KPD4 142258Z 19021G27KT 05/M02 A30 RMK A01 T00461015  RH  065%=      5-min Rain = 0
KPD4 142259Z 18019KT 05/M01 A30 RMK A01 T00451014  RH  065%=      5-min Rain = 0
KPD4 142300Z 18020KT 05/M01 A30 RMK A01 T00451014  RH  065%=      5-min Rain = 0
KPD4 142301Z 18021KT 05/M02 A30 RMK A01 T00451015  RH  065%=      5-min Rain = 0
KPD4 142302Z 18019G26KT 04/M02 A30 RMK A01 T00441015  RH  065%=      5-min Rain = 0
KPD4 142303Z 18022KT 04/M02 A30 RMK A01 T00441015  RH  066%=      5-min Rain = 0
KPD4 142304Z 18023KT 04/M02 A30 RMK A01 T00431016  RH  066%=      5-min Rain = 0
KPD4 142305Z 18024KT 04/M02 A30 RMK A01 T00411016  RH  066%=      5-min Rain = 0
KPD4 142306Z 18022KT 04/M02 A30 RMK A01 T00401016  RH  067%=      5-min Rain = 0
KPD4 142307Z 18020KT 04/M02 A30 RMK A01 T00401015  RH  067%=      5-min Rain = 0
KPD4 142308Z 18019KT 04/M02 A30 RMK A01 T00391016  RH  068%=      5-min Rain = 0
KPD4 142309Z 18020G26KT 04/M02 A30 RMK A01 T00391015  RH  068%=      5-min Rain = 0
KPD4 142310Z 18022G27KT 04/M02 A30 RMK A01 T00391015  RH  068%=      5-min Rain = 0
KPD4 142311Z 18024KT 04/M02 A2999 RMK A01 T00401015  RH  068%=      5-min Rain = 0
KPD4 142312Z 18021KT 04/M01 A2999 RMK A01 T00411014  RH  067%=      5-min Rain = 0
KPD4 142313Z 18022KT 04/M01 A2999 RMK A01 T00441013  RH  066%=      5-min Rain = 0
KPD4 142314Z 17021G26KT 05/M01 A2999 RMK A01 T00461014  RH  065%=      5-min Rain = 0
KPD4 142315Z 18021G27KT 05/M01 A2999 RMK A01 T00471013  RH  065%=      5-min Rain = 0
KPD4 142316Z 18022KT 05/M01 A2999 RMK A01 T00491013  RH  064%=      5-min Rain = 0
KPD4 142317Z 18025G31KT 05/M01 A2999 RMK A01 T00491013  RH  064%=      5-min Rain = 0
KPD4 142318Z 18024KT 05/M01 A2999 RMK A01 T00491013  RH  064%=      5-min Rain = 0
KPD4 142319Z 17025KT 05/M01 A2999 RMK A01 T00491013  RH  064%=      5-min Rain = 0
KPD4 142320Z 17024KT 05/M01 A2999 RMK A01 T00491013  RH  064%=      5-min Rain = 0
KPD4 142321Z 17027KT 05/M01 A2999 RMK A01 T00501013  RH  064%=      5-min Rain = 0
KPD4 142322Z 17021G30KT 05/M01 A2999 RMK A01 T00501014  RH  064%=      5-min Rain = 0
KPD4 142323Z 18024G29KT 05/M01 A2999 RMK A01 T00501013  RH  064%=      5-min Rain = 0
KPD4 142324Z 18023KT 05/M01 A2999 RMK A01 T00501014  RH  063%=      5-min Rain = 0
KPD4 142325Z 18026G31KT 05/M01 A2998 RMK A01 T00491014  RH  064%=      5-min Rain = 0
KPD4 142326Z 17025G30KT 05/M02 A2998 RMK A01 T00471015  RH  064%=      5-min Rain = 0
KPD4 142327Z 17023KT 05/M01 A2999 RMK A01 T00461014  RH  065%=      5-min Rain = 0
KPD4 142328Z 18024KT 05/M01 A2998 RMK A01 T00461014  RH  065%=      5-min Rain = 0
KPD4 142329Z 18024KT 05/M01 A2998 RMK A01 T00461014  RH  065%=      5-min Rain = 0
KPD4 142330Z 17021KT 05/M01 A2998 RMK A01 T00451014  RH  066%=      5-min Rain = 0
KPD4 142331Z 17021KT 05/M01 A2998 RMK A01 T00451013  RH  066%=      5-min Rain = 0
KPD4 142332Z 18021G27KT 05/M01 A2998 RMK A01 T00451014  RH  066%=      5-min Rain = 0
KPD4 142333Z 19022KT 05/M01 A2998 RMK A01 T00451013  RH  066%=      5-min Rain = 0
KPD4 142334Z 18021KT 05/M01 A2998 RMK A01 T00461014  RH  065%=      5-min Rain = 0
KPD4 142335Z 18022G28KT 05/M01 A2998 RMK A01 T00451014  RH  066%=      5-min Rain = 0
KPD4 142336Z 18025G30KT 04/M02 A2998 RMK A01 T00441015  RH  066%=      5-min Rain = 0
KPD4 142337Z 18023G30KT 04/M02 A2998 RMK A01 T00421015  RH  066%=      5-min Rain = 0
KPD4 142338Z 19023KT 04/M02 A2998 RMK A01 T00411015  RH  067%=      5-min Rain = 0
KPD4 142339Z 19022G28KT 04/M02 A2998 RMK A01 T00411015  RH  067%=      5-min Rain = 0
KPD4 142340Z 19021KT 04/M02 A2998 RMK A01 T00401015  RH  067%=      5-min Rain = 0
KPD4 142341Z 18021G27KT 04/M02 A2998 RMK A01 T00401015  RH  067%=      5-min Rain = 0
KPD4 142342Z 18020KT 04/M02 A2998 RMK A01 T00401015  RH  067%=      5-min Rain = 0
KPD4 142343Z 18021KT 04/M02 A2998 RMK A01 T00401015  RH  067%=      5-min Rain = 0
KPD4 142344Z 18017KT 04/M02 A2998 RMK A01 T00401015  RH  067%=      5-min Rain = 0
KPD4 142345Z 18019G24KT 04/M02 A2998 RMK A01 T00401015  RH  067%=      5-min Rain = 0
KPD4 142346Z 18023G29KT 04/M02 A2998 RMK A01 T00391016  RH  067%=      5-min Rain = 0
KPD4 142347Z 17024G29KT 04/M02 A2998 RMK A01 T00381016  RH  068%=      5-min Rain = 0
KPD4 142348Z 17024KT 04/M02 A2998 RMK A01 T00371016  RH  068%=      5-min Rain = 0
KPD4 142349Z 17022KT 04/M02 A2998 RMK A01 T00361017  RH  068%=      5-min Rain = 0
KPD4 142350Z 17020G25KT 04/M02 A2998 RMK A01 T00351017  RH  069%=      5-min Rain = 0
KPD4 142351Z 17023G29KT 03/M02 A2998 RMK A01 T00341018  RH  069%=      5-min Rain = 0
KPD4 142352Z 17023G28KT 03/M02 A2998 RMK A01 T00321018  RH  070%=      5-min Rain = 0
KPD4 142353Z 17020KT 03/M02 A2998 RMK A01 T00311019  RH  070%=      5-min Rain = 0
KPD4 142354Z 17021G26KT 03/M02 A2999 RMK A01 T00301019  RH  070%=      5-min Rain = 0
KPD4 142355Z 17023KT 03/M02 A2998 RMK A01 T00291019  RH  071%=      5-min Rain = 0
KPD4 142356Z 18021KT 03/M02 A2999 RMK A01 T00291019  RH  071%=      5-min Rain = 0
KPD4 142357Z 18021KT 03/M02 A2998 RMK A01 T00281018  RH  071%=      5-min Rain = 0
KPD4 142358Z 18020KT 03/M02 A2998 RMK A01 T00281018  RH  072%=      5-min Rain = 0
KPD4 142359Z 18018KT 03/M02 A2998 RMK A01 T00281018  RH  072%=      5-min Rain = 0
KPD4 150000Z 18020G25KT 03/M02 A2998 RMK A01 T00281018  RH  072%=      5-min Rain = 0
KPD4 150001Z 17019KT 03/M02 A2998 RMK A01 T00271018  RH  072%=      5-min Rain = 0
KPD4 150002Z 17019KT 03/M02 A2998 RMK A01 T00261019  RH  072%=      5-min Rain = 0
KPD4 150003Z 17018KT 03/M02 A2998 RMK A01 T00261018  RH  073%=      5-min Rain = 0
KPD4 150004Z 17019KT 03/M02 A2998 RMK A01 T00251018  RH  073%=      5-min Rain = 0
KPD4 150005Z 17020KT 03/M02 A2998 RMK A01 T00251018  RH  073%=      5-min Rain = 0
KPD4 150006Z 18021KT 02/M02 A2998 RMK A01 T00241018  RH  074%=      5-min Rain = 0
KPD4 150007Z 17017KT 02/M02 A2998 RMK A01 T00231018  RH  074%=      5-min Rain = 0
KPD4 150008Z 17021KT 02/M02 A2998 RMK A01 T00221019  RH  074%=      5-min Rain = 0
KPD4 150009Z 17021KT 02/M02 A2998 RMK A01 T00221018  RH  075%=      5-min Rain = 0
KPD4 150010Z 17021KT 02/M02 A2998 RMK A01 T00221018  RH  075%=      5-min Rain = 0
KPD4 150011Z 18019KT 02/M02 A2998 RMK A01 T00221018  RH  075%=      5-min Rain = 0
KPD4 150012Z 17017KT 02/M02 A2998 RMK A01 T00211018  RH  075%=      5-min Rain = 0
KPD4 150013Z 17017KT 02/M02 A2998 RMK A01 T00201019  RH  075%=      5-min Rain = 0
KPD4 150014Z 18017KT 02/M02 A2998 RMK A01 T00201019  RH  076%=      5-min Rain = 0
KPD4 150015Z 17016KT 02/M02 A2998 RMK A01 T00191019  RH  076%=      5-min Rain = 0
KPD4 150016Z 18016KT 02/M02 A2998 RMK A01 T00191019  RH  076%=      5-min Rain = 0
KPD4 150017Z 18016KT 02/M02 A2998 RMK A01 T00181019  RH  076%=      5-min Rain = 0
KPD4 150018Z 18018KT 02/M02 A2998 RMK A01 T00171020  RH  077%=      5-min Rain = 0
KPD4 150019Z 18018KT 02/M02 A2998 RMK A01 T00171019  RH  077%=      5-min Rain = 0
KPD4 150020Z 18019KT 02/M02 A2998 RMK A01 T00171019  RH  077%=      5-min Rain = 0
KPD4 150021Z 17017KT 02/M02 A2998 RMK A01 T00181018  RH  077%=      5-min Rain = 0
KPD4 150022Z 18018G26KT 02/M02 A2998 RMK A01 T00171019  RH  077%=      5-min Rain = 0
KPD4 150023Z 17018KT 02/M02 A2998 RMK A01 T00171018  RH  078%=      5-min Rain = 0
KPD4 150024Z 18018KT 02/M02 A2998 RMK A01 T00171019  RH  077%=      5-min Rain = 0
KPD4 150025Z 18018G23KT 02/M02 A2998 RMK A01 T00161019  RH  077%=      5-min Rain = 0
KPD4 150026Z 18018G24KT 02/M02 A2998 RMK A01 T00151019  RH  078%=      5-min Rain = 0
KPD4 150027Z 18020KT 02/M02 A2997 RMK A01 T00151018  RH  078%=      5-min Rain = 0
KPD4 150028Z 18019G24KT 02/M02 A2998 RMK A01 T00151018  RH  078%=      5-min Rain = 0
KPD4 150029Z 18021KT 02/M02 A2998 RMK A01 T00151018  RH  079%=      5-min Rain = 0
KPD4 150030Z 18017KT 02/M02 A2998 RMK A01 T00151018  RH  079%=      5-min Rain = 0
KPD4 150031Z 18020KT 02/M02 A2998 RMK A01 T00151018  RH  079%=      5-min Rain = 0
KPD4 150032Z 18020KT 02/M02 A2998 RMK A01 T00151017  RH  079%=      5-min Rain = 0
KPD4 150033Z 18020KT 02/M02 A2998 RMK A01 T00151017  RH  079%=      5-min Rain = 0
KPD4 150034Z 18020KT 02/M02 A2998 RMK A01 T00151017  RH  079%=      5-min Rain = 0
KPD4 150035Z 18017KT 02/M02 A2998 RMK A01 T00151017  RH  079%=      5-min Rain = 0
KPD4 150036Z 18018KT 01/M02 A2998 RMK A01 T00141018  RH  080%=      5-min Rain = 0
KPD4 150037Z 18019G24KT 01/M02 A2998 RMK A01 T00131017  RH  080%=      5-min Rain = 0
KPD4 150038Z 18020KT 01/M02 A2998 RMK A01 T00131017  RH  080%=      5-min Rain = 0
KPD4 150039Z 18020KT 01/M02 A2998 RMK A01 T00131017  RH  081%=      5-min Rain = 0
KPD4 150040Z 18018KT 01/M02 A2997 RMK A01 T00131017  RH  081%=      5-min Rain = 0
KPD4 150041Z 18019KT 01/M02 A2997 RMK A01 T00131017  RH  081%=      5-min Rain = 0
KPD4 150042Z 18020KT 01/M02 A2998 RMK A01 T00121017  RH  081%=      5-min Rain = 0
KPD4 150043Z 18019KT 01/M02 A2998 RMK A01 T00121017  RH  081%=      5-min Rain = 0
KPD4 150044Z 17017KT 01/M02 A2998 RMK A01 T00111017  RH  081%=      5-min Rain = 0
KPD4 150045Z 18018KT 01/M02 A2998 RMK A01 T00111018  RH  081%=      5-min Rain = 0
KPD4 150046Z 18017KT 01/M02 A2998 RMK A01 T00101018  RH  082%=      5-min Rain = 0
KPD4 150047Z 18019KT 01/M02 A2998 RMK A01 T00101018  RH  082%=      5-min Rain = 0
KPD4 150048Z 18017G22KT 01/M02 A2998 RMK A01 T00101018  RH  082%=      5-min Rain = 0
KPD4 150049Z 17017KT 01/M02 A2998 RMK A01 T00091018  RH  082%=      5-min Rain = 0
KPD4 150050Z 18019KT 01/M02 A2998 RMK A01 T00081018  RH  082%=      5-min Rain = 0
KPD4 150051Z 18020KT 01/M02 A2998 RMK A01 T00081018  RH  083%=      5-min Rain = 0
KPD4 150052Z 18021KT 01/M02 A2998 RMK A01 T00081018  RH  083%=      5-min Rain = 0
KPD4 150053Z 18021KT 01/M02 A2998 RMK A01 T00081018  RH  083%=      5-min Rain = 0
KPD4 150054Z 18021G26KT 01/M02 A2998 RMK A01 T00081018  RH  083%=      5-min Rain = 0
KPD4 150055Z 18022KT 01/M02 A2998 RMK A01 T00081017  RH  083%=      5-min Rain = 0
KPD4 150056Z 18018KT 01/M02 A2998 RMK A01 T00081018  RH  083%=      5-min Rain = 0
KPD4 150057Z 18021KT 01/M02 A2998 RMK A01 T00081018  RH  083%=      5-min Rain = 0
KPD4 150058Z 18021KT 01/M02 A2998 RMK A01 T00081017  RH  083%=      5-min Rain = 0
KPD4 150059Z 18020KT 01/M02 A2998 RMK A01 T00081017  RH  083%=      5-min Rain = 0
KPD4 150100Z 18021KT 01/M02 A2998 RMK A01 T00071018  RH  083%=      5-min Rain = 0
KPD4 150101Z 17018G23KT 01/M02 A2998 RMK A01 T00081017  RH  083%=      5-min Rain = 0
KPD4 150102Z 18019KT 01/M02 A2998 RMK A01 T00071018  RH  084%=      5-min Rain = 0
KPD4 150103Z 18018KT 01/M02 A2998 RMK A01 T00071018  RH  084%=      5-min Rain = 0
KPD4 150104Z 18018G23KT 01/M02 A2998 RMK A01 T00061018  RH  084%=      5-min Rain = 0
KPD4 150105Z 17018G23KT 01/M02 A2998 RMK A01 T00061018  RH  084%=      5-min Rain = 0
KPD4 150106Z 18018KT 01/M02 A2998 RMK A01 T00061017  RH  084%=      5-min Rain = 0
KPD4 150107Z 18016KT 01/M02 A2998 RMK A01 T00061018  RH  084%=      5-min Rain = 0
KPD4 150108Z 18016KT 01/M02 A2998 RMK A01 T00061018  RH  084%=      5-min Rain = 0
KPD4 150109Z 18019KT 01/M02 A2998 RMK A01 T00061018  RH  084%=      5-min Rain = 0
KPD4 150110Z 18017G22KT 01/M02 A2998 RMK A01 T00061017  RH  085%=      5-min Rain = 0
KPD4 150111Z 18016KT 01/M02 A2998 RMK A01 T00061017  RH  085%=      5-min Rain = 0
KPD4 150112Z 18017KT 01/M02 A2998 RMK A01 T00061017  RH  085%=      5-min Rain = 0
KPD4 150113Z 18016KT 01/M02 A2998 RMK A01 T00061017  RH  085%=      5-min Rain = 0
KPD4 150114Z 18018G24KT 01/M02 A2998 RMK A01 T00061017  RH  085%=      5-min Rain = 0
KPD4 150115Z 18019G24KT 01/M02 A2998 RMK A01 T00061016  RH  085%=      5-min Rain = 0
KPD4 150116Z 18016G21KT 01/M02 A2998 RMK A01 T00071016  RH  085%=      5-min Rain = 0
KPD4 150117Z 18015G20KT 01/M02 A2998 RMK A01 T00061016  RH  085%=      5-min Rain = 0
KPD4 150118Z 19020G25KT 01/M02 A2998 RMK A01 T00061017  RH  085%=      5-min Rain = 0
KPD4 150119Z 18017KT 01/M02 A2998 RMK A01 T00061016  RH  085%=      5-min Rain = 0
KPD4 150120Z 18014G19KT 01/M02 A2998 RMK A01 T00071016  RH  085%=      5-min Rain = 0
KPD4 150121Z 18015KT 01/M02 A2998 RMK A01 T00061017  RH  085%=      5-min Rain = 0
KPD4 150122Z 18016KT 01/M02 A2998 RMK A01 T00061016  RH  085%=      5-min Rain = 0
KPD4 150123Z 18020KT 01/M02 A2998 RMK A01 T00061016  RH  086%=      5-min Rain = 0
KPD4 150124Z 19018KT 01/M02 A2998 RMK A01 T00061015  RH  086%=      5-min Rain = 0
KPD4 150125Z 18020KT 01/M02 A2998 RMK A01 T00071015  RH  085%=      5-min Rain = 0
KPD4 150126Z 18018KT 01/M02 A2998 RMK A01 T00071015  RH  085%=      5-min Rain = 0
KPD4 150127Z 18019G24KT 01/M01 A2997 RMK A01 T00081014  RH  085%=      5-min Rain = 0
KPD4 150128Z 18021KT 01/M01 A2997 RMK A01 T00081014  RH  085%=      5-min Rain = 0
KPD4 150129Z 19020KT 01/M01 A2997 RMK A01 T00071014  RH  085%=      5-min Rain = 0
KPD4 150130Z 18017KT 01/M01 A2998 RMK A01 T00081014  RH  085%=      5-min Rain = 0
KPD4 150131Z 18021KT 01/M01 A2998 RMK A01 T00081014  RH  085%=      5-min Rain = 0
KPD4 150132Z 19019KT 01/M01 A2998 RMK A01 T00081014  RH  085%=      5-min Rain = 0
KPD4 150133Z 18018G23KT 01/M01 A2998 RMK A01 T00081014  RH  085%=      5-min Rain = 0
KPD4 150134Z 18015KT 01/M01 A2998 RMK A01 T00081014  RH  085%=      5-min Rain = 0
KPD4 150135Z 18016KT 01/M02 A2998 RMK A01 T00071015  RH  085%=      5-min Rain = 0
KPD4 150136Z 18017KT 01/M01 A2998 RMK A01 T00071014  RH  086%=      5-min Rain = 0
KPD4 150137Z 18017KT 01/M01 A2998 RMK A01 T00071014  RH  086%=      5-min Rain = 0
KPD4 150138Z 18019G25KT 01/M01 A2998 RMK A01 T00071014  RH  086%=      5-min Rain = 0
KPD4 150139Z 19019G24KT 01/M01 A2997 RMK A01 T00071014  RH  086%=      5-min Rain = 0
KPD4 150140Z 18019KT 01/M01 A2997 RMK A01 T00081014  RH  086%=      5-min Rain = 0
KPD4 150141Z 18021G27KT 01/M01 A2997 RMK A01 T00071014  RH  086%=      5-min Rain = 0
KPD4 150142Z 19020G25KT 01/M01 A2997 RMK A01 T00081014  RH  086%=      5-min Rain = 0
KPD4 150143Z 19020G25KT 01/M01 A2997 RMK A01 T00081013  RH  086%=      5-min Rain = 0
KPD4 150144Z 18021KT 01/M01 A2997 RMK A01 T00071014  RH  086%=      5-min Rain = 0
KPD4 150145Z 19018KT 01/M01 A2997 RMK A01 T00081013  RH  086%=      5-min Rain = 0
KPD4 150146Z 18019KT 01/M01 A2997 RMK A01 T00071014  RH  086%=      5-min Rain = 0
KPD4 150147Z 18020KT 01/M01 A2998 RMK A01 T00071013  RH  086%=      5-min Rain = 0
KPD4 150148Z 19019KT 01/M01 A2997 RMK A01 T00071013  RH  086%=      5-min Rain = 0
KPD4 150149Z 18021G26KT 01/M01 A2997 RMK A01 T00071014  RH  086%=      5-min Rain = 0
KPD4 150150Z 18019KT 01/M01 A2997 RMK A01 T00071014  RH  086%=      5-min Rain = 0
KPD4 150151Z 19019KT 01/M01 A2997 RMK A01 T00071014  RH  086%=      5-min Rain = 0
KPD4 150152Z 18019KT 01/M01 A2997 RMK A01 T00061014  RH  087%=      5-min Rain = 0
KPD4 150153Z 19018KT 01/M01 A2997 RMK A01 T00061014  RH  087%=      5-min Rain = 0
KPD4 150154Z 18019G24KT 01/M01 A2997 RMK A01 T00061014  RH  087%=      5-min Rain = 0
KPD4 150155Z 19021KT 01/M01 A2997 RMK A01 T00061014  RH  087%=      5-min Rain = 0
KPD4 150156Z 18020KT 01/M01 A2997 RMK A01 T00061014  RH  087%=      5-min Rain = 0
KPD4 150157Z 18020KT 01/M01 A2998 RMK A01 T00061014  RH  087%=      5-min Rain = 0
KPD4 150158Z 18019KT 01/M01 A2997 RMK A01 T00061014  RH  087%=      5-min Rain = 0
KPD4 150159Z 18022KT 01/M01 A2997 RMK A01 T00061014  RH  087%=      5-min Rain = 0
KPD4 150200Z 18021KT 01/M01 A2997 RMK A01 T00061013  RH  087%=      5-min Rain = 0
KPD4 150201Z 18019KT 01/M01 A2997 RMK A01 T00061013  RH  087%=      5-min Rain = 0
KPD4 150202Z 18020KT 01/M01 A2997 RMK A01 T00061014  RH  087%=      5-min Rain = 0
KPD4 150203Z 19021KT 01/M01 A2998 RMK A01 T00061013  RH  087%=      5-min Rain = 0
KPD4 150204Z 18018G28KT 01/M01 A2998 RMK A01 T00061013  RH  087%=      5-min Rain = 0
KPD4 150205Z 18022G27KT 01/M01 A2998 RMK A01 T00061013  RH  087%=      5-min Rain = 0
KPD4 150206Z 18020KT 01/M01 A2998 RMK A01 T00061013  RH  087%=      5-min Rain = 0
KPD4 150207Z 19019KT 01/M01 A2998 RMK A01 T00061013  RH  087%=      5-min Rain = 0
KPD4 150208Z 19018KT 01/M01 A2998 RMK A01 T00061013  RH  087%=      5-min Rain = 0
KPD4 150209Z 19020G26KT 01/M01 A2998 RMK A01 T00061013  RH  087%=      5-min Rain = 0
KPD4 150210Z 18018KT 01/M01 A2998 RMK A01 T00061013  RH  087%=      5-min Rain = 0
KPD4 150211Z 18020KT 01/M01 A2997 RMK A01 T00061013  RH  087%=      5-min Rain = 0
KPD4 150212Z 19020KT 01/M01 A2997 RMK A01 T00061013  RH  087%=      5-min Rain = 0
KPD4 150213Z 19018KT 01/M01 A2997 RMK A01 T00061013  RH  087%=      5-min Rain = 0
KPD4 150214Z 19020KT 01/M01 A2998 RMK A01 T00061013  RH  087%=      5-min Rain = 0
KPD4 150215Z 19021G27KT 01/M01 A2997 RMK A01 T00061013  RH  087%=      5-min Rain = 0
KPD4 150216Z 19021KT 01/M01 A2997 RMK A01 T00061013  RH  088%=      5-min Rain = 0
KPD4 150217Z 19017KT 01/M01 A2998 RMK A01 T00061013  RH  087%=      5-min Rain = 0
KPD4 150218Z 19018G23KT 01/M01 A2998 RMK A01 T00061013  RH  087%=      5-min Rain = 0
KPD4 150219Z 19020KT 01/M01 A2998 RMK A01 T00061012  RH  088%=      5-min Rain = 0
KPD4 150220Z 19020KT 01/M01 A2997 RMK A01 T00061012  RH  088%=      5-min Rain = 0
KPD4 150221Z 18021G27KT 01/M01 A2997 RMK A01 T00061013  RH  088%=      5-min Rain = 0
KPD4 150222Z 19020G27KT 01/M01 A2997 RMK A01 T00061012  RH  088%=      5-min Rain = 0
KPD4 150223Z 19022KT 01/M01 A2997 RMK A01 T00061012  RH  087%=      5-min Rain = 0
KPD4 150224Z 19020KT 01/M01 A2997 RMK A01 T00061012  RH  088%=      5-min Rain = 0
KPD4 150225Z 19017KT 01/M01 A2997 RMK A01 T00071012  RH  088%=      5-min Rain = 0
KPD4 150226Z 19020KT 01/M01 A2997 RMK A01 T00071012  RH  088%=      5-min Rain = 0
KPD4 150227Z 19019KT 01/M01 A2997 RMK A01 T00071011  RH  088%=      5-min Rain = 0
KPD4 150228Z 19022KT 01/M01 A2997 RMK A01 T00071011  RH  088%=      5-min Rain = 0
KPD4 150229Z 19018KT 01/M01 A2997 RMK A01 T00071011  RH  088%=      5-min Rain = 0
KPD4 150230Z 19021G26KT 01/M01 A2997 RMK A01 T00071012  RH  088%=      5-min Rain = 0
KPD4 150231Z 19021KT 01/M01 A2997 RMK A01 T00071011  RH  088%=      5-min Rain = 0
KPD4 150232Z 19021G27KT 01/M01 A2997 RMK A01 T00071011  RH  088%=      5-min Rain = 0
KPD4 150233Z 19020G26KT 01/M01 A2997 RMK A01 T00071011  RH  088%=      5-min Rain = 0
KPD4 150234Z 19022KT 01/M01 A2997 RMK A01 T00071011  RH  088%=      5-min Rain = 0
KPD4 150235Z 19020G26KT 01/M01 A2997 RMK A01 T00071011  RH  088%=      5-min Rain = 0
KPD4 150236Z 19023KT 01/M01 A2997 RMK A01 T00071011  RH  088%=      5-min Rain = 0
KPD4 150237Z 19022KT 01/M01 A2997 RMK A01 T00071011  RH  088%=      5-min Rain = 0
KPD4 150238Z 19020KT 01/M01 A2997 RMK A01 T00071011  RH  088%=      5-min Rain = 0
KPD4 150239Z 19022KT 01/M01 A2997 RMK A01 T00071011  RH  088%=      5-min Rain = 0
KPD4 150240Z 19021KT 01/M01 A2997 RMK A01 T00071011  RH  088%=      5-min Rain = 0
KPD4 150241Z 19019G24KT 01/M01 A2997 RMK A01 T00071011  RH  088%=      5-min Rain = 0
KPD4 150242Z 19025G30KT 01/M01 A2996 RMK A01 T00071011  RH  088%=      5-min Rain = 0
KPD4 150243Z 19024KT 01/M01 A2996 RMK A01 T00071010  RH  088%=      5-min Rain = 0
KPD4 150244Z 19024KT 01/M01 A2996 RMK A01 T00071011  RH  088%=      5-min Rain = 0
KPD4 150245Z 19022G27KT 01/M01 A2996 RMK A01 T00071011  RH  088%=      5-min Rain = 0
KPD4 150246Z 19024KT 01/M01 A2996 RMK A01 T00071011  RH  088%=      5-min Rain = 0
KPD4 150247Z 19029KT 01/M01 A2996 RMK A01 T00071011  RH  088%=      5-min Rain = 0
KPD4 150248Z 19024KT 01/M01 A2996 RMK A01 T00071010  RH  088%=      5-min Rain = 0
KPD4 150249Z 19025KT 01/M01 A2996 RMK A01 T00081011  RH  088%=      5-min Rain = 0
KPD4 150250Z 19025G30KT 01/M01 A2996 RMK A01 T00081010  RH  088%=      5-min Rain = 0
KPD4 150251Z 19022G29KT 01/M01 A2996 RMK A01 T00081010  RH  088%=      5-min Rain = 0
KPD4 150252Z 20025G31KT 01/M01 A2996 RMK A01 T00071010  RH  088%=      5-min Rain = 0
KPD4 150253Z 20023G29KT 01/M01 A2996 RMK A01 T00081010  RH  088%=      5-min Rain = 0
KPD4 150254Z 19021G26KT 01/M01 A2996 RMK A01 T00081010  RH  088%=      5-min Rain = 0
KPD4 150255Z 19021G27KT 01/M01 A2996 RMK A01 T00081010  RH  088%=      5-min Rain = 0
KPD4 150256Z 19022KT 01/M01 A2996 RMK A01 T00081010  RH  088%=      5-min Rain = 0
KPD4 150257Z 19023G28KT 01/M01 A2996 RMK A01 T00081010  RH  088%=      5-min Rain = 0
KPD4 150258Z 20027KT 01/M01 A2996 RMK A01 T00091009  RH  088%=      5-min Rain = 0
KPD4 150259Z 20023G30KT 01/M01 A2996 RMK A01 T00101008  RH  088%=      5-min Rain = 0
KPD4 150300Z 19023G28KT 01/M01 A2996 RMK A01 T00101008  RH  088%=      5-min Rain = 0
KPD4 150301Z 19022KT 01/M01 A2996 RMK A01 T00101008  RH  088%=      5-min Rain = 0
KPD4 150302Z 20023G29KT 01/M01 A2996 RMK A01 T00101008  RH  088%=      5-min Rain = 0
KPD4 150303Z 19022KT 01/M01 A2996 RMK A01 T00101008  RH  088%=      5-min Rain = 0
KPD4 150304Z 19025KT 01/M01 A2996 RMK A01 T00101008  RH  088%=      5-min Rain = 0
KPD4 150305Z 19024G29KT 01/M01 A2996 RMK A01 T00101008  RH  088%=      5-min Rain = 0
KPD4 150306Z 19024KT 01/M01 A2996 RMK A01 T00101008  RH  088%=      5-min Rain = 0
KPD4 150307Z 19025KT 01/M01 A2996 RMK A01 T00101008  RH  088%=      5-min Rain = 0
KPD4 150308Z 19024G29KT 01/M01 A2996 RMK A01 T00111007  RH  088%=      5-min Rain = 0
KPD4 150309Z 19024KT 01/M01 A2996 RMK A01 T00111008  RH  088%=      5-min Rain = 0
KPD4 150310Z 19023G30KT 01/M01 A2996 RMK A01 T00111007  RH  088%=      5-min Rain = 0
KPD4 150311Z 19024G30KT 01/M01 A2996 RMK A01 T00111007  RH  088%=      5-min Rain = 0
KPD4 150312Z 19024KT 01/M01 A2996 RMK A01 T00111007  RH  087%=      5-min Rain = 0
KPD4 150313Z 20024G29KT 01/M01 A2996 RMK A01 T00111007  RH  087%=      5-min Rain = 0
KPD4 150314Z 20027G34KT 01/M01 A2996 RMK A01 T00111007  RH  087%=      5-min Rain = 0
KPD4 150315Z 19022G28KT 01/M01 A2996 RMK A01 T00111008  RH  087%=      5-min Rain = 0
KPD4 150316Z 19020G25KT 01/M01 A2996 RMK A01 T00111007  RH  087%=      5-min Rain = 0
KPD4 150317Z 19023G29KT 01/M01 A2996 RMK A01 T00111008  RH  088%=      5-min Rain = 0
KPD4 150318Z 20022G29KT 01/M01 A2996 RMK A01 T00111008  RH  088%=      5-min Rain = 0
KPD4 150319Z 20025G31KT 01/M01 A2996 RMK A01 T00111007  RH  088%=      5-min Rain = 0
KPD4 150320Z 20023G28KT 01/M01 A2996 RMK A01 T00111007  RH  088%=      5-min Rain = 0
KPD4 150321Z 20025KT 01/M01 A2996 RMK A01 T00111007  RH  088%=      5-min Rain = 0
KPD4 150322Z 20024G30KT 01/M01 A2996 RMK A01 T00111007  RH  088%=      5-min Rain = 0
KPD4 150323Z 20023KT 01/M01 A2996 RMK A01 T00111007  RH  088%=      5-min Rain = 0
KPD4 150324Z 20023KT 01/M01 A2996 RMK A01 T00111007  RH  088%=      5-min Rain = 0
KPD4 150325Z 19026G31KT 01/M01 A2996 RMK A01 T00111007  RH  088%=      5-min Rain = 0
KPD4 150326Z 20026G31KT 01/M01 A2996 RMK A01 T00111007  RH  088%=      5-min Rain = 0
KPD4 150327Z 19023G28KT 01/M01 A2996 RMK A01 T00121007  RH  088%=      5-min Rain = 0
KPD4 150328Z 20023KT 01/M01 A2996 RMK A01 T00121007  RH  088%=      5-min Rain = 0
KPD4 150329Z 20024KT 01/M01 A2996 RMK A01 T00111007  RH  088%=      5-min Rain = 0
KPD4 150330Z 20025KT 01/M01 A2995 RMK A01 T00111007  RH  088%=      5-min Rain = 0
KPD4 150331Z 20021G27KT 01/M01 A2996 RMK A01 T00121006  RH  088%=      5-min Rain = 0
KPD4 150332Z 19024G29KT 01/M01 A2996 RMK A01 T00121007  RH  088%=      5-min Rain = 0
KPD4 150333Z 20027G33KT 01/M01 A2995 RMK A01 T00121006  RH  088%=      5-min Rain = 0
KPD4 150334Z 20023G30KT 01/M01 A2996 RMK A01 T00121006  RH  088%=      5-min Rain = 0
KPD4 150335Z 20028KT 01/M01 A2995 RMK A01 T00121006  RH  088%=      5-min Rain = 0
KPD4 150336Z 20025G31KT 01/M01 A2996 RMK A01 T00121006  RH  088%=      5-min Rain = 0
KPD4 150337Z 19024KT 01/M01 A2996 RMK A01 T00121006  RH  088%=      5-min Rain = 0
KPD4 150338Z 20022G28KT 01/M01 A2996 RMK A01 T00121007  RH  087%=      5-min Rain = 0
KPD4 150339Z 20022KT 01/M01 A2996 RMK A01 T00111007  RH  088%=      5-min Rain = 0
KPD4 150340Z 20023G28KT 01/M01 A2996 RMK A01 T00111007  RH  088%=      5-min Rain = 0
KPD4 150341Z 20022G28KT 01/M01 A2996 RMK A01 T00111007  RH  088%=      5-min Rain = 0
KPD4 150342Z 20026KT 01/M01 A2996 RMK A01 T00111007  RH  088%=      5-min Rain = 0
KPD4 150343Z 20025G31KT 01/M01 A2996 RMK A01 T00111007  RH  088%=      5-min Rain = 0
KPD4 150344Z 20022KT 01/M01 A2996 RMK A01 T00111007  RH  088%=      5-min Rain = 0
KPD4 150345Z 20023G28KT 01/M01 A2996 RMK A01 T00111007  RH  088%=      5-min Rain = 0
KPD4 150346Z 20024G30KT 01/M01 A2996 RMK A01 T00111007  RH  088%=      5-min Rain = 0
KPD4 150347Z 20023KT 01/M01 A2996 RMK A01 T00111007  RH  088%=      5-min Rain = 0
KPD4 150348Z 20021G26KT 01/M01 A2996 RMK A01 T00111007  RH  088%=      5-min Rain = 0
KPD4 150349Z 20024KT 01/M01 A2996 RMK A01 T00111007  RH  088%=      5-min Rain = 0
KPD4 150350Z 19020KT 01/M01 A2996 RMK A01 T00111007  RH  088%=      5-min Rain = 0
KPD4 150351Z 19022KT 01/M01 A2996 RMK A01 T00101007  RH  088%=      5-min Rain = 0
KPD4 150352Z 19020KT 01/M01 A2996 RMK A01 T00101007  RH  088%=      5-min Rain = 0
KPD4 150353Z 19023KT 01/M01 A2996 RMK A01 T00091008  RH  088%=      5-min Rain = 0
KPD4 150354Z 20024KT 01/M01 A2996 RMK A01 T00091007  RH  089%=      5-min Rain = 0
KPD4 150355Z 20021G27KT 01/M01 A2996 RMK A01 T00101007  RH  089%=      5-min Rain = 0
KPD4 150356Z 19022KT 01/M01 A2995 RMK A01 T00101007  RH  088%=      5-min Rain = 0
KPD4 150357Z 19021KT 01/M01 A2996 RMK A01 T00101007  RH  089%=      5-min Rain = 0
KPD4 150358Z 19021KT 01/M01 A2996 RMK A01 T00101007  RH  089%=      5-min Rain = 0
KPD4 150359Z 20021KT 01/M01 A2996 RMK A01 T00101007  RH  089%=      5-min Rain = 0
KPD4 150400Z 19019KT 01/M01 A2996 RMK A01 T00091007  RH  089%=      5-min Rain = 0
KPD4 150401Z 19019KT 01/M01 A2995 RMK A01 T00091007  RH  089%=      5-min Rain = 0
KPD4 150402Z 19022G27KT 01/M01 A2996 RMK A01 T00091008  RH  089%=      5-min Rain = 0
KPD4 150403Z 20019KT 01/M01 A2995 RMK A01 T00091007  RH  089%=      5-min Rain = 0
KPD4 150404Z 19021KT 01/M01 A2995 RMK A01 T00091007  RH  089%=      5-min Rain = 0
KPD4 150405Z 20019KT 01/M01 A2995 RMK A01 T00081007  RH  089%=      5-min Rain = 0
KPD4 150406Z 20022KT 01/M01 A2995 RMK A01 T00081008  RH  089%=      5-min Rain = 0
KPD4 150407Z 20021KT 01/M01 A2995 RMK A01 T00081007  RH  089%=      5-min Rain = 0
KPD4 150408Z 20019KT 01/M01 A2995 RMK A01 T00081008  RH  089%=      5-min Rain = 0
KPD4 150409Z 20020KT 01/M01 A2995 RMK A01 T00081008  RH  089%=      5-min Rain = 0
KPD4 150410Z 20021KT 01/M01 A2995 RMK A01 T00081007  RH  089%=      5-min Rain = 0
KPD4 150411Z 20022G27KT 01/M01 A2995 RMK A01 T00081007  RH  089%=      5-min Rain = 0
KPD4 150412Z 20023G28KT 01/M01 A2995 RMK A01 T00091007  RH  089%=      5-min Rain = 0
KPD4 150413Z 20021KT 01/M01 A2995 RMK A01 T00081007  RH  089%=      5-min Rain = 0
KPD4 150414Z 20019KT 01/M01 A2995 RMK A01 T00091007  RH  089%=      5-min Rain = 0
KPD4 150415Z 20021KT 01/M01 A2995 RMK A01 T00081007  RH  089%=      5-min Rain = 0
KPD4 150416Z 19025KT 01/M01 A2994 RMK A01 T00081007  RH  089%=      5-min Rain = 0
KPD4 150417Z 20026G31KT 01/M01 A2994 RMK A01 T00091007  RH  089%=      5-min Rain = 0
KPD4 150418Z 20023KT 01/M01 A2994 RMK A01 T00091007  RH  089%=      5-min Rain = 0
KPD4 150419Z 20020KT 01/M01 A2994 RMK A01 T00091007  RH  089%=      5-min Rain = 0
KPD4 150420Z 19022G27KT 01/M01 A2994 RMK A01 T00091007  RH  089%=      5-min Rain = 0
KPD4 150421Z 20023G30KT 01/M01 A2994 RMK A01 T00091007  RH  089%=      5-min Rain = 0
KPD4 150422Z 20023KT 01/M01 A2994 RMK A01 T00091007  RH  089%=      5-min Rain = 0
KPD4 150423Z 20025KT 01/M01 A2994 RMK A01 T00091006  RH  089%=      5-min Rain = 0
KPD4 150424Z 20025G31KT 01/M01 A2994 RMK A01 T00091006  RH  089%=      5-min Rain = 0
KPD4 150425Z 20023KT 01/M01 A2994 RMK A01 T00101006  RH  089%=      5-min Rain = 0
KPD4 150426Z 20023KT 01/M01 A2994 RMK A01 T00101007  RH  089%=      5-min Rain = 0
KPD4 150427Z 20022KT 01/M01 A2994 RMK A01 T00101007  RH  089%=      5-min Rain = 0
KPD4 150428Z 20026G31KT 01/M01 A2994 RMK A01 T00101007  RH  089%=      5-min Rain = 0
KPD4 150429Z 20020KT 01/M01 A2994 RMK A01 T00091007  RH  089%=      5-min Rain = 0
KPD4 150430Z 20023G28KT 01/M01 A2994 RMK A01 T00091007  RH  089%=      5-min Rain = 0
KPD4 150431Z 20025G30KT 01/M01 A2994 RMK A01 T00091006  RH  089%=      5-min Rain = 0
KPD4 150432Z 20023G28KT 01/M01 A2994 RMK A01 T00101006  RH  089%=      5-min Rain = 0
KPD4 150433Z 19025KT 01/M01 A2994 RMK A01 T00101006  RH  089%=      5-min Rain = 0
KPD4 150434Z 19020G26KT 01/M01 A2994 RMK A01 T00101006  RH  089%=      5-min Rain = 0
KPD4 150435Z 19022G27KT 01/M01 A2994 RMK A01 T00101006  RH  089%=      5-min Rain = 0
KPD4 150436Z 19025G30KT 01/M01 A2994 RMK A01 T00101006  RH  089%=      5-min Rain = 0
KPD4 150437Z 20024G31KT 01/M01 A2994 RMK A01 T00101006  RH  089%=      5-min Rain = 0
KPD4 150438Z 19024KT 01/M01 A2994 RMK A01 T00101006  RH  089%=      5-min Rain = 0
KPD4 150439Z 20024KT 01/M01 A2994 RMK A01 T00101006  RH  089%=      5-min Rain = 0
KPD4 150440Z 19022G27KT 01/M01 A2994 RMK A01 T00101006  RH  089%=      5-min Rain = 0
KPD4 150441Z 20024G29KT 01/M01 A2994 RMK A01 T00101006  RH  089%=      5-min Rain = 0
KPD4 150442Z 19024G30KT 01/M01 A2994 RMK A01 T00101006  RH  089%=      5-min Rain = 0
KPD4 150443Z 20023G28KT 01/M01 A2994 RMK A01 T00101006  RH  089%=      5-min Rain = 0
KPD4 150444Z 20022G27KT 01/M01 A2994 RMK A01 T00101006  RH  089%=      5-min Rain = 0
KPD4 150445Z 19022G27KT 01/M01 A2994 RMK A01 T00091006  RH  089%=      5-min Rain = 0
KPD4 150446Z 19022G27KT 01/M01 A2994 RMK A01 T00091006  RH  089%=      5-min Rain = 0
KPD4 150447Z 19024G29KT 01/M01 A2994 RMK A01 T00091006  RH  090%=      5-min Rain = 0
KPD4 150448Z 19024KT 01/M01 A2994 RMK A01 T00091006  RH  090%=      5-min Rain = 0
KPD4 150449Z 20025KT 01/M01 A2994 RMK A01 T00101006  RH  089%=      5-min Rain = 0
KPD4 150450Z 19025G30KT 01/M01 A2994 RMK A01 T00101006  RH  089%=      5-min Rain = 0
KPD4 150451Z 20020G26KT 01/M01 A2994 RMK A01 T00101006  RH  089%=      5-min Rain = 0
KPD4 150452Z 20020G26KT 01/M01 A2994 RMK A01 T00091007  RH  089%=      5-min Rain = 0
KPD4 150453Z 20025G31KT 01/M01 A2994 RMK A01 T00091006  RH  090%=      5-min Rain = 0
KPD4 150454Z 20027G34KT 01/M01 A2994 RMK A01 T00091005  RH  090%=      5-min Rain = 0
KPD4 150455Z 20025G30KT 01/M01 A2994 RMK A01 T00101005  RH  089%=      5-min Rain = 0
KPD4 150456Z 19025G30KT 01/M01 A2994 RMK A01 T00101006  RH  089%=      5-min Rain = 0
KPD4 150457Z 20025G32KT 01/M01 A2994 RMK A01 T00101005  RH  089%=      5-min Rain = 0
KPD4 150458Z 20023G29KT 01/M01 A2994 RMK A01 T00111005  RH  089%=      5-min Rain = 0
KPD4 150459Z 20023G30KT 01/M01 A2994 RMK A01 T00101006  RH  089%=      5-min Rain = 0
KPD4 150500Z 19024G30KT 01/M01 A2994 RMK A01 T00101005  RH  089%=      5-min Rain = 0
KPD4 150501Z 19023G28KT 01/M01 A2994 RMK A01 T00101005  RH  089%=      5-min Rain = 0
KPD4 150502Z 20023KT 01/M01 A2994 RMK A01 T00101005  RH  089%=      5-min Rain = 0
KPD4 150503Z 19023G28KT 01/M01 A2994 RMK A01 T00111005  RH  089%=      5-min Rain = 0
KPD4 150504Z 20023G28KT 01/M01 A2994 RMK A01 T00111005  RH  089%=      5-min Rain = 0
KPD4 150505Z 20024G29KT 01/M01 A2994 RMK A01 T00111005  RH  089%=      5-min Rain = 0
KPD4 150506Z 20027G32KT 01/M01 A2994 RMK A01 T00111005  RH  089%=      5-min Rain = 0
KPD4 150507Z 20023G28KT 01/M00 A2994 RMK A01 T00121004  RH  089%=      5-min Rain = 0
KPD4 150508Z 20026KT 01/M00 A2994 RMK A01 T00121004  RH  089%=      5-min Rain = 0
KPD4 150509Z 20022G27KT 01/M00 A2994 RMK A01 T00121004  RH  089%=      5-min Rain = 0
KPD4 150510Z 19025G31KT 01/M00 A2994 RMK A01 T00121004  RH  089%=      5-min Rain = 0
KPD4 150511Z 20023KT 01/M00 A2994 RMK A01 T00121004  RH  089%=      5-min Rain = 0
KPD4 150512Z 20022KT 01/M00 A2994 RMK A01 T00121004  RH  089%=      5-min Rain = 0
KPD4 150513Z 20020KT 01/M00 A2994 RMK A01 T00121004  RH  089%=      5-min Rain = 0
KPD4 150514Z 20024KT 01/M00 A2994 RMK A01 T00121004  RH  089%=      5-min Rain = 0
KPD4 150515Z 20019G24KT 01/M00 A2994 RMK A01 T00121004  RH  089%=      5-min Rain = 0
KPD4 150516Z 20021KT 01/M00 A2994 RMK A01 T00121004  RH  089%=      5-min Rain = 0
KPD4 150517Z 20023KT 01/M00 A2994 RMK A01 T00121004  RH  089%=      5-min Rain = 0
KPD4 150518Z 20024KT 01/M00 A2994 RMK A01 T00121003  RH  089%=      5-min Rain = 0
KPD4 150519Z 20022KT 01/M00 A2994 RMK A01 T00131003  RH  089%=      5-min Rain = 0
KPD4 150520Z 20024KT 01/M00 A2994 RMK A01 T00131003  RH  089%=      5-min Rain = 0
KPD4 150521Z 20021KT 01/M00 A2994 RMK A01 T00131003  RH  089%=      5-min Rain = 0
KPD4 150522Z 20021KT 01/M00 A2995 RMK A01 T00141003  RH  089%=      5-min Rain = 0
KPD4 150523Z 20022KT 01/M00 A2994 RMK A01 T00131003  RH  089%=      5-min Rain = 0
KPD4 150524Z 20024KT 01/M00 A2994 RMK A01 T00141002  RH  089%=      5-min Rain = 0
KPD4 150525Z 20024KT 02/M00 A2994 RMK A01 T00151002  RH  089%=      5-min Rain = 0
KPD4 150526Z 20020KT 02/M00 A2994 RMK A01 T00151002  RH  089%=      5-min Rain = 0
KPD4 150527Z 20023KT 02/M00 A2994 RMK A01 T00151002  RH  089%=      5-min Rain = 0
KPD4 150528Z 20024G31KT 02/M00 A2994 RMK A01 T00161001  RH  089%=      5-min Rain = 0
KPD4 150529Z 21025G31KT 02/M00 A2994 RMK A01 T00171001  RH  088%=      5-min Rain = 0
KPD4 150530Z 20024G30KT 02/00 A2994 RMK A01 T001700-0  RH  088%=      5-min Rain = 0
KPD4 150531Z 20020G26KT 02/M00 A2994 RMK A01 T00171001  RH  088%=      5-min Rain = 0
KPD4 150532Z 21022G28KT 02/M00 A2994 RMK A01 T00181001  RH  088%=      5-min Rain = 0
KPD4 150533Z 20022G27KT 02/M00 A2994 RMK A01 T00181001  RH  088%=      5-min Rain = 0
KPD4 150534Z 21023KT 02/00 A2994 RMK A01 T001800-0  RH  088%=      5-min Rain = 0
KPD4 150535Z 20021KT 02/00 A2994 RMK A01 T00190000  RH  087%=      5-min Rain = 0
KPD4 150536Z 21024KT 02/00 A2994 RMK A01 T00190000  RH  087%=      5-min Rain = 0
KPD4 150537Z 21021KT 02/00 A2994 RMK A01 T00200000  RH  087%=      5-min Rain = 0
KPD4 150538Z 20025G30KT 02/00 A2994 RMK A01 T00200000  RH  087%=      5-min Rain = 0
KPD4 150539Z 20020G26KT 02/00 A2994 RMK A01 T00200000  RH  087%=      5-min Rain = 0
KPD4 150540Z 21021G27KT 02/00 A2994 RMK A01 T002000-0  RH  087%=      5-min Rain = 0
KPD4 150541Z 21021G26KT 02/00 A2994 RMK A01 T00200000  RH  087%=      5-min Rain = 0
KPD4 150542Z 20026G34KT 02/00 A2994 RMK A01 T00200000  RH  087%=      5-min Rain = 0
KPD4 150543Z 21028KT 02/00 A2994 RMK A01 T00210002  RH  087%=      5-min Rain = 0
KPD4 150544Z 20023KT 02/00 A2994 RMK A01 T00220002  RH  086%=      5-min Rain = 0
KPD4 150545Z 20024G29KT 02/00 A2994 RMK A01 T00220001  RH  086%=      5-min Rain = 0
KPD4 150546Z 21022KT 02/00 A2994 RMK A01 T00220001  RH  086%=      5-min Rain = 0
KPD4 150547Z 20022KT 02/00 A2994 RMK A01 T00210001  RH  086%=      5-min Rain = 0
KPD4 150548Z 20023KT 02/00 A2994 RMK A01 T00210000  RH  086%=      5-min Rain = 0
KPD4 150549Z 20025KT 02/00 A2994 RMK A01 T00210000  RH  086%=      5-min Rain = 0
KPD4 150550Z 21024G29KT 02/00 A2994 RMK A01 T00210001  RH  086%=      5-min Rain = 0
KPD4 150551Z 21022G28KT 02/00 A2994 RMK A01 T00220001  RH  086%=      5-min Rain = 0
KPD4 150552Z 20022KT 02/00 A2994 RMK A01 T00220001  RH  086%=      5-min Rain = 0
KPD4 150553Z 21024G30KT 02/00 A2994 RMK A01 T00220001  RH  086%=      5-min Rain = 0
KPD4 150554Z 20021KT 02/00 A2994 RMK A01 T00220001  RH  086%=      5-min Rain = 0
KPD4 150555Z 20020KT 02/00 A2994 RMK A01 T00220001  RH  086%=      5-min Rain = 0
KPD4 150556Z 20019KT 02/00 A2994 RMK A01 T00220001  RH  086%=      5-min Rain = 0
KPD4 150557Z 20023G30KT 02/00 A2994 RMK A01 T00210001  RH  086%=      5-min Rain = 0
KPD4 150558Z 20020KT 02/00 A2994 RMK A01 T00210001  RH  086%=      5-min Rain = 0
KPD4 150559Z 20021G26KT 02/00 A2994 RMK A01 T00210001  RH  086%=      5-min Rain = 0

Page generated in 0.2028 seconds.